M I D A S
Marine Information and Data Acquisition System
Tripno 1031 of the Zeeleeuw from 2006-02-15 08:21:39 to 2006-02-15 13:48:44
Back to CruiseResearch ActivitiesStationsMapUnderway DataData graphs

EquipmentUnitsComment
TimeDGPSUTC
LatitudeDGPSDM.mWGS84
LongitudeDGPSDM.mWGS84
TemperatureSBE03/SBE38deg celciusITS90
ConductivitySBE21S/mITS90
SalinitySBE21 Practical Salinity Units
ChlorophylAChelsea fluorimeterg/lCalibrated in Aceton
Missing or incorrect values are displayed as -999
Sea surface data collected by the RV Zeeleeuw from 2006-02-15 08:09:40 to 2006-02-15 13:59:57
                                                                                    Next 1000 lines
Time Latitude Longitude Temperature Conductivity Salinity ChlorophylA
2006-02-15 08:09:50 51°13.597 2°56.092 -999 2.335702 23.637033 -0.848668
2006-02-15 08:09:55 51°13.597 2°56.09 -999 2.345101 23.775129 -0.814958
2006-02-15 08:10:00 51°13.598 2°56.088 -999 2.356567 23.949243 -0.814958
2006-02-15 08:10:04 51°13.599 2°56.086 -999 2.3513 23.944408 -0.781249
2006-02-15 08:10:10 51°13.6 2°56.082 -999 2.366278 24.174531 -0.74754
2006-02-15 08:10:15 51°13.601 2°56.079 -999 2.366278 24.174531 -0.74754
2006-02-15 08:10:20 51°13.603 2°56.075 -999 2.367621 24.25647 -0.74754
2006-02-15 08:10:25 51°13.605 2°56.07 -999 2.374336 24.366282 -0.74754
2006-02-15 08:10:30 51°13.606 2°56.066 -999 2.367519 24.320445 -0.71383
2006-02-15 08:10:35 51°13.608 2°56.061 -999 2.370928 24.390494 -0.612702
2006-02-15 08:10:40 51°13.609 2°56.056 -999 2.362974 24.322412 -0.376736
2006-02-15 08:10:44 51°13.61 2°56.052 -999 2.362974 24.322412 -0.376736
2006-02-15 08:10:50 51°13.613 2°56.046 -999 2.37382 24.46287 -0.208189
2006-02-15 08:10:55 51°13.614 2°56.04 -999 2.371651 24.460099 -0.073352
2006-02-15 08:11:00 51°13.616 2°56.034 -999 2.377952 24.544421 -0.005933
2006-02-15 08:11:05 51°13.617 2°56.028 -999 2.363801 24.401038 0.061486
2006-02-15 08:11:10 51°13.619 2°56.021 -999 2.360599 24.381461 0.095195
2006-02-15 08:11:15 51°13.621 2°56.014 -999 2.360599 24.381461 0.095195
2006-02-15 08:11:20 51°13.623 2°56.006 -999 2.343867 24.217342 0.128905
2006-02-15 08:11:24 51°13.625 2°55.999 -999 2.328064 24.052843 0.095195
2006-02-15 08:11:30 51°13.628 2°55.989 -999 2.299455 23.742051 0.061486
2006-02-15 08:11:35 51°13.63 2°55.981 -999 2.28541 23.595261 0.027777
2006-02-15 08:11:40 51°13.632 2°55.972 -999 2.273017 23.460128 -0.005933
2006-02-15 08:11:45 51°13.634 2°55.964 -999 2.273017 23.460128 -0.005933
2006-02-15 08:11:50 51°13.637 2°55.956 -999 2.260315 23.323623 -0.039642
2006-02-15 08:11:55 51°13.639 2°55.948 -999 2.248646 23.200871 -0.039642
2006-02-15 08:12:00 51°13.641 2°55.941 -999 2.217873 22.864637 -0.073352
2006-02-15 08:12:05 51°13.644 2°55.933 -999 2.2219 22.919626 -0.039642
2006-02-15 08:12:10 51°13.646 2°55.925 -999 2.230161 23.024543 -0.073352
2006-02-15 08:12:15 51°13.648 2°55.918 -999 2.230161 23.024543 -0.073352
2006-02-15 08:12:20 51°13.651 2°55.91 -999 2.223862 22.960951 -0.073352
2006-02-15 08:12:24 51°13.653 2°55.904 -999 2.206928 22.775892 -0.107061
2006-02-15 08:12:30 51°13.656 2°55.894 -999 2.186793 22.551445 -0.107061
2006-02-15 08:12:35 51°13.658 2°55.886 -999 2.190303 22.589685 -0.107061
2006-02-15 08:12:40 51°13.66 2°55.878 -999 2.18638 22.545441 -0.107061
2006-02-15 08:12:45 51°13.663 2°55.87 -999 2.18638 22.545441 -0.107061
2006-02-15 08:12:50 51°13.665 2°55.862 -999 2.170582 22.364724 -0.107061
2006-02-15 08:12:55 51°13.667 2°55.854 -999 2.178016 22.451833 -0.14077
2006-02-15 08:13:00 51°13.669 2°55.846 -999 2.159534 22.244307 -0.14077
2006-02-15 08:13:04 51°13.671 2°55.84 -999 2.157986 22.231521 -0.107061
2006-02-15 08:13:10 51°13.673 2°55.83 -999 2.161806 22.281202 -0.107061
2006-02-15 08:13:15 51°13.675 2°55.823 -999 2.161806 22.281202 -0.107061
2006-02-15 08:13:20 51°13.676 2°55.815 -999 2.147661 22.125872 -0.073352
2006-02-15 08:13:24 51°13.677 2°55.81 -999 2.134549 21.97829 -0.073352
2006-02-15 08:13:30 51°13.679 2°55.801 -999 2.130213 21.928852 -0.039642
2006-02-15 08:13:35 51°13.68 2°55.795 -999 2.121437 21.829513 -0.039642
2006-02-15 08:13:40 51°13.681 2°55.788 -999 2.108739 21.684208 -0.039642
2006-02-15 08:13:44 51°13.682 2°55.784 -999 2.108739 21.684208 -0.039642
2006-02-15 08:13:50 51°13.683 2°55.778 -999 2.096453 21.545609 -0.039642
2006-02-15 08:13:55 51°13.683 2°55.774 -999 2.108429 21.678136 -0.039642
2006-02-15 08:14:00 51°13.684 2°55.772 -999 2.136717 21.993478 -0.039642
2006-02-15 08:14:04 51°13.684 2°55.771 -999 2.163767 22.297972 -0.073352
2006-02-15 08:14:10 51°13.685 2°55.77 -999 2.174402 22.417806 -0.005933
2006-02-15 08:14:15 51°13.686 2°55.77 -999 2.174402 22.417806 -0.005933
2006-02-15 08:14:20 51°13.687 2°55.771 -999 2.181217 22.494632 0.128905
2006-02-15 08:14:25 51°13.689 2°55.772 -999 2.193608 22.639127 0.230033
2006-02-15 08:14:30 51°13.691 2°55.774 -999 2.197118 22.682142 0.331161
2006-02-15 08:14:34 51°13.693 2°55.775 -999 2.198048 22.691277 0.364871
2006-02-15 08:14:40 51°13.696 2°55.777 -999 2.194434 22.651836 0.39858
2006-02-15 08:14:45 51°13.699 2°55.779 -999 2.194434 22.651836 0.39858
2006-02-15 08:14:50 51°13.703 2°55.78 -999 2.181114 22.496829 0.39858
2006-02-15 08:14:55 51°13.706 2°55.782 -999 2.154165 22.183867 0.432289
2006-02-15 08:15:00 51°13.71 2°55.782 -999 2.127735 21.880047 0.432289
2006-02-15 08:15:05 51°13.713 2°55.782 -999 2.105435 21.623828 0.465999
2006-02-15 08:15:10 51°13.716 2°55.782 -999 2.092427 21.47474 0.499708
2006-02-15 08:15:15 51°13.717 2°55.781 -999 2.092427 21.47474 0.499708
2006-02-15 08:15:20 51°13.718 2°55.78 -999 2.093769 21.485293 0.533418
2006-02-15 08:15:25 51°13.718 2°55.779 -999 2.088504 21.420539 0.600836
2006-02-15 08:15:30 51°13.717 2°55.778 -999 2.091911 21.455501 0.600836
2006-02-15 08:15:35 51°13.715 2°55.776 -999 2.080761 21.32683 0.600836
2006-02-15 08:15:40 51°13.713 2°55.776 -999 2.063006 21.12378 0.567127
2006-02-15 08:15:45 51°13.71 2°55.775 -999 2.063006 21.12378 0.567127
2006-02-15 08:15:50 51°13.708 2°55.774 -999 2.021613 20.661573 0.533418
2006-02-15 08:15:55 51°13.707 2°55.773 -999 1.99684 20.386695 0.533418
2006-02-15 08:16:00 51°13.706 2°55.772 -999 1.946887 19.829333 0.499708
2006-02-15 08:16:05 51°13.705 2°55.771 -999 1.943171 19.785718 0.499708
2006-02-15 08:16:10 51°13.705 2°55.77 -999 1.95215 19.88542 0.533418
2006-02-15 08:16:15 51°13.706 2°55.769 -999 1.95215 19.88542 0.533418
2006-02-15 08:16:20 51°13.707 2°55.767 -999 1.9634 20.015784 0.533418
2006-02-15 08:16:25 51°13.709 2°55.765 -999 2.00004 20.422946 0.499708
2006-02-15 08:16:30 51°13.711 2°55.763 -999 2.021406 20.667285 0.499708
2006-02-15 08:16:35 51°13.714 2°55.759 -999 2.034412 20.81742 0.499708
2006-02-15 08:16:40 51°13.718 2°55.755 -999 2.036683 20.845272 0.465999
2006-02-15 08:16:45 51°13.722 2°55.75 -999 2.036683 20.845272 0.465999
2006-02-15 08:16:50 51°13.727 2°55.743 -999 2.005511 20.495516 0.432289
2006-02-15 08:16:54 51°13.731 2°55.737 -999 1.935225 19.711631 0.432289
2006-02-15 08:17:00 51°13.739 2°55.728 -999 1.884761 19.14925 0.432289
2006-02-15 08:17:05 51°13.746 2°55.72 -999 1.806341 18.279929 0.39858
2006-02-15 08:17:10 51°13.753 2°55.712 -999 1.757644 17.739529 0.39858
2006-02-15 08:17:15 51°13.761 2°55.703 -999 1.757644 17.739529 0.39858
2006-02-15 08:17:20 51°13.77 2°55.694 -999 1.727417 17.404831 0.39858
2006-02-15 08:17:24 51°13.777 2°55.687 -999 1.710809 17.220881 0.39858
2006-02-15 08:17:30 51°13.789 2°55.676 -999 1.722156 17.342017 0.432289
2006-02-15 08:17:35 51°13.799 2°55.666 -999 1.750629 17.65251 0.465999
2006-02-15 08:17:40 51°13.809 2°55.657 -999 1.768374 17.847792 0.465999
2006-02-15 08:17:45 51°13.819 2°55.647 -999 1.768374 17.847792 0.465999
2006-02-15 08:17:50 51°13.83 2°55.637 -999 1.789833 18.086838 0.465999
2006-02-15 08:17:55 51°13.841 2°55.628 -999 1.789317 18.083862 0.465999
2006-02-15 08:18:00 51°13.853 2°55.619 -999 1.769818 17.867383 0.432289
2006-02-15 08:18:05 51°13.864 2°55.61 -999 1.746503 17.614079 0.432289
2006-02-15 08:18:10 51°13.876 2°55.602 -999 1.724426 17.3762 0.465999
2006-02-15 08:18:15 51°13.889 2°55.593 -999 1.724426 17.3762 0.465999
2006-02-15 08:18:20 51°13.901 2°55.584 -999 1.707095 17.187932 0.533418
2006-02-15 08:18:25 51°13.912 2°55.575 -999 1.689662 16.993135 0.668255
2006-02-15 08:18:30 51°13.924 2°55.566 -999 1.674705 16.825678 0.769383
2006-02-15 08:18:35 51°13.937 2°55.557 -999 1.680791 16.883584 0.836802
2006-02-15 08:18:40 51°13.948 2°55.549 -999 1.691416 16.998106 0.93793
2006-02-15 08:18:45 51°13.96 2°55.541 -999 1.691416 16.998106 0.93793
2006-02-15 08:18:50 51°13.971 2°55.533 -999 1.725251 17.366588 0.93793
2006-02-15 08:18:55 51°13.983 2°55.524 -999 1.792309 18.105972 0.93793
2006-02-15 08:19:00 51°13.994 2°55.516 -999 1.816349 18.383078 0.93793
2006-02-15 08:19:05 51°14.005 2°55.508 -999 1.951221 19.886373 0.870512
2006-02-15 08:19:10 51°14.016 2°55.5 -999 2.053922 21.043593 0.769383
2006-02-15 08:19:15 51°14.027 2°55.492 -999 2.053922 21.043593 0.769383
2006-02-15 08:19:19 51°14.036 2°55.485 -999 2.14508 22.080306 0.668255
2006-02-15 08:19:24 51°14.047 2°55.478 -999 2.245755 23.238203 0.567127
2006-02-15 08:19:30 51°14.06 2°55.468 -999 2.30555 23.937087 0.465999
2006-02-15 08:19:35 51°14.071 2°55.459 -999 2.347794 24.431781 0.364871
2006-02-15 08:19:40 51°14.083 2°55.451 -999 2.358226 24.558844 0.331161
2006-02-15 08:19:44 51°14.092 2°55.443 -999 2.358226 24.558844 0.331161
2006-02-15 08:19:50 51°14.106 2°55.433 -999 2.356986 24.544701 0.297452
2006-02-15 08:19:55 51°14.118 2°55.424 -999 2.349033 24.454703 0.39858
2006-02-15 08:20:00 51°14.13 2°55.415 -999 2.339634 24.348984 0.499708
2006-02-15 08:20:05 51°14.142 2°55.406 -999 2.331887 24.259959 0.567127
2006-02-15 08:20:10 51°14.154 2°55.396 -999 2.319597 24.117774 0.600836
2006-02-15 08:20:15 51°14.166 2°55.386 -999 2.319597 24.117774 0.600836
2006-02-15 08:20:20 51°14.178 2°55.375 -999 2.301006 23.901888 0.567127
2006-02-15 08:20:24 51°14.187 2°55.366 -999 2.275394 23.604411 0.533418
2006-02-15 08:20:30 51°14.2 2°55.351 -999 2.235635 23.147882 0.533418
2006-02-15 08:20:35 51°14.211 2°55.338 -999 2.197841 22.714753 0.533418
2006-02-15 08:20:40 51°14.222 2°55.325 -999 2.166762 22.360443 0.499708
2006-02-15 08:20:45 51°14.232 2°55.311 -999 2.166762 22.360443 0.499708
2006-02-15 08:20:50 51°14.242 2°55.297 -999 2.142189 22.08342 0.499708
2006-02-15 08:20:55 51°14.251 2°55.281 -999 2.117204 21.800183 0.465999
2006-02-15 08:21:00 51°14.261 2°55.266 -999 2.102544 21.635986 0.432289
2006-02-15 08:21:04 51°14.268 2°55.254 -999 2.109048 21.712355 0.432289
2006-02-15 08:21:10 51°14.279 2°55.235 -999 2.117721 21.813171 0.39858
2006-02-15 08:21:15 51°14.288 2°55.219 -999 2.117721 21.813171 0.39858
2006-02-15 08:21:20 51°14.297 2°55.202 -999 2.119476 21.834884 0.364871
2006-02-15 08:21:25 51°14.305 2°55.185 -999 2.1298 21.952434 0.364871
2006-02-15 08:21:30 51°14.314 2°55.168 -999 2.133 21.990458 0.331161
2006-02-15 08:21:35 51°14.323 2°55.151 -999 2.129697 21.954558 0.331161
2006-02-15 08:21:40 51°14.332 2°55.134 -999 2.145287 22.131566 0.297452
2006-02-15 08:21:45 51°14.341 2°55.118 -999 2.145287 22.131566 0.297452
2006-02-15 08:21:50 51°14.351 2°55.102 -999 2.155921 22.254832 0.297452
2006-02-15 08:21:55 51°14.361 2°55.085 -999 2.194331 22.69342 0.297452
2006-02-15 08:22:00 51°14.372 2°55.069 -999 2.210233 22.876759 0.297452
2006-02-15 08:22:04 51°14.38 2°55.055 -999 2.225619 23.055154 0.297452
2006-02-15 08:22:10 51°14.393 2°55.034 -999 2.244723 23.273848 0.297452
2006-02-15 08:22:15 51°14.404 2°55.016 -999 2.244723 23.273848 0.297452
2006-02-15 08:22:20 51°14.415 2°54.996 -999 2.273328 23.602165 0.263742
2006-02-15 08:22:24 51°14.423 2°54.98 -999 2.318667 24.123815 0.230033
2006-02-15 08:22:30 51°14.434 2°54.955 -999 2.359156 24.591559 0.196324
2006-02-15 08:22:35 51°14.443 2°54.933 -999 2.400474 25.073782 0.162614
2006-02-15 08:22:40 51°14.451 2°54.91 -999 2.427849 25.392824 0.095195
2006-02-15 08:22:44 51°14.456 2°54.891 -999 2.427849 25.392824 0.095195
2006-02-15 08:22:48 51°14.461 2°54.871 -999 2.47093 25.892184 0.027777
2006-02-15 08:22:54 51°14.467 2°54.84 -999 2.503682 26.275401 -0.005933
2006-02-15 08:22:59 51°14.472 2°54.815 -999 2.531476 26.601427 -0.073352
2006-02-15 08:23:04 51°14.476 2°54.788 -999 2.555036 26.875069 -0.107061
2006-02-15 08:23:10 51°14.481 2°54.756 -999 2.571983 27.071775 -0.14077
2006-02-15 08:23:14 51°14.483 2°54.735 -999 2.571983 27.071775 -0.14077
2006-02-15 08:23:19 51°14.485 2°54.706 -999 2.589653 27.276225 -0.17448
2006-02-15 08:23:24 51°14.487 2°54.678 -999 2.619727 27.62376 -0.208189
2006-02-15 08:23:28 51°14.488 2°54.656 -999 2.627374 27.710769 -0.241899
2006-02-15 08:23:34 51°14.488 2°54.623 -999 2.649285 27.960793 -0.275608
2006-02-15 08:23:40 51°14.487 2°54.589 -999 2.658276 28.065189 -0.275608
2006-02-15 08:23:44 51°14.487 2°54.567 -999 2.658276 28.065189 -0.275608
2006-02-15 08:23:49 51°14.486 2°54.538 -999 2.659827 28.081507 -0.275608
2006-02-15 08:23:54 51°14.484 2°54.51 -999 2.652282 27.990542 -0.309317
2006-02-15 08:23:59 51°14.481 2°54.483 -999 2.647011 27.92853 -0.309317
2006-02-15 08:24:04 51°14.477 2°54.455 -999 2.639879 27.844959 -0.309317
2006-02-15 08:24:09 51°14.472 2°54.428 -999 2.636882 27.809361 -0.343027
2006-02-15 08:24:14 51°14.466 2°54.402 -999 2.636882 27.809361 -0.343027
2006-02-15 08:24:19 51°14.46 2°54.376 -999 2.643187 27.882486 -0.343027
2006-02-15 08:24:24 51°14.453 2°54.35 -999 2.651042 27.975307 -0.343027
2006-02-15 08:24:30 51°14.444 2°54.32 -999 2.653936 28.009737 -0.343027
2006-02-15 08:24:35 51°14.436 2°54.295 -999 2.656623 28.040933 -0.376736
2006-02-15 08:24:39 51°14.43 2°54.276 -999 2.651145 27.978186 -0.376736
2006-02-15 08:24:44 51°14.421 2°54.251 -999 2.651145 27.978186 -0.376736
2006-02-15 08:24:50 51°14.411 2°54.222 -999 2.665718 28.147397 -0.410446
2006-02-15 08:24:55 51°14.403 2°54.198 -999 2.672746 28.229897 -0.410446
2006-02-15 08:25:00 51°14.394 2°54.174 -999 2.688147 28.411482 -0.410446
2006-02-15 08:25:04 51°14.386 2°54.155 -999 2.69714 28.516947 -0.444155
2006-02-15 08:25:08 51°14.379 2°54.136 -999 2.710267 28.671466 -0.444155
2006-02-15 08:25:15 51°14.365 2°54.102 -999 2.710267 28.671466 -0.444155
2006-02-15 08:25:19 51°14.358 2°54.083 -999 2.71926 28.77707 -0.444155
2006-02-15 08:25:24 51°14.349 2°54.059 -999 2.721121 28.798747 -0.444155
2006-02-15 08:25:29 51°14.339 2°54.035 -999 2.71771 28.758144 -0.444155
2006-02-15 08:25:34 51°14.33 2°54.011 -999 2.733422 28.94124 -0.444155
2006-02-15 08:25:40 51°14.319 2°53.981 -999 2.747481 29.107815 -0.444155
2006-02-15 08:25:44 51°14.312 2°53.961 -999 2.747481 29.107815 -0.444155
2006-02-15 08:25:48 51°14.305 2°53.941 -999 2.760093 29.255884 -0.477864
2006-02-15 08:25:54 51°14.295 2°53.91 -999 2.763918 29.299664 -0.477864
2006-02-15 08:26:00 51°14.286 2°53.879 -999 2.769087 29.359146 -0.477864
2006-02-15 08:26:05 51°14.278 2°53.853 -999 2.779321 29.479596 -0.477864
2006-02-15 08:26:08 51°14.273 2°53.838 -999 2.785214 29.549356 -0.477864
2006-02-15 08:26:14 51°14.264 2°53.807 -999 2.785214 29.549356 -0.477864
2006-02-15 08:26:19 51°14.256 2°53.781 -999 2.794002 29.65121 -0.477864
2006-02-15 08:26:25 51°14.246 2°53.75 -999 2.803203 29.75705 -0.477864
2006-02-15 08:26:28 51°14.24 2°53.735 -999 2.820056 29.956988 -0.511574
2006-02-15 08:26:35 51°14.228 2°53.7 -999 2.822847 29.991482 -0.511574
2006-02-15 08:26:39 51°14.22 2°53.68 -999 2.832049 30.104709 -0.511574
2006-02-15 08:26:44 51°14.211 2°53.656 -999 2.832049 30.104709 -0.511574
2006-02-15 08:26:49 51°14.201 2°53.631 -999 2.842389 30.226824 -0.511574
2006-02-15 08:26:54 51°14.19 2°53.607 -999 2.839287 30.1959 -0.545283
2006-02-15 08:26:59 51°14.18 2°53.583 -999 2.840114 30.208324 -0.578993
2006-02-15 08:27:04 51°14.171 2°53.559 -999 2.854279 30.378167 -0.578993
2006-02-15 08:27:09 51°14.161 2°53.534 -999 2.851281 30.343886 -0.578993
2006-02-15 08:27:14 51°14.151 2°53.51 -999 2.851281 30.343886 -0.578993
2006-02-15 08:27:19 51°14.142 2°53.484 -999 2.857071 30.412767 -0.612702
2006-02-15 08:27:24 51°14.134 2°53.458 -999 2.860897 30.459518 -0.612702
2006-02-15 08:27:28 51°14.127 2°53.438 -999 2.854176 30.381521 -0.612702
2006-02-15 08:27:34 51°14.118 2°53.406 -999 2.835358 30.159806 -0.612702
2006-02-15 08:27:40 51°14.109 2°53.374 -999 2.868239 30.544824 -0.646411
2006-02-15 08:27:44 51°14.102 2°53.353 -999 2.868239 30.544824 -0.646411
2006-02-15 08:27:49 51°14.094 2°53.327 -999 2.863999 30.493196 -0.646411
2006-02-15 08:27:54 51°14.086 2°53.301 -999 2.867308 30.531138 -0.646411
2006-02-15 08:28:00 51°14.075 2°53.27 -999 2.868032 30.537803 -0.680121
2006-02-15 08:28:04 51°14.068 2°53.25 -999 2.866894 30.524445 -0.680121
2006-02-15 08:28:08 51°14.06 2°53.23 -999 2.879199 30.670845 -0.680121
2006-02-15 08:28:15 51°14.047 2°53.195 -999 2.879199 30.670845 -0.680121
2006-02-15 08:28:19 51°14.039 2°53.175 -999 2.869273 30.556971 -0.71383
2006-02-15 08:28:24 51°14.029 2°53.151 -999 2.866481 30.525095 -0.71383
2006-02-15 08:28:29 51°14.02 2°53.125 -999 2.882508 30.717126 -0.71383
2006-02-15 08:28:34 51°14.01 2°53.1 -999 2.883025 30.725977 -0.74754
2006-02-15 08:28:39 51°14.001 2°53.075 -999 2.881784 30.713235 -0.74754
2006-02-15 08:28:44 51°13.991 2°53.05 -999 2.881784 30.713235 -0.74754
2006-02-15 08:28:49 51°13.982 2°53.025 -999 2.877855 30.668883 -0.74754
2006-02-15 08:28:54 51°13.972 2°53 -999 2.881784 30.716008 -0.74754
2006-02-15 08:28:59 51°13.963 2°52.975 -999 2.881164 30.707788 -0.74754
2006-02-15 08:29:04 51°13.954 2°52.95 -999 2.886644 30.770388 -0.74754
2006-02-15 08:29:10 51°13.943 2°52.919 -999 2.887575 30.781334 -0.781249
2006-02-15 08:29:14 51°13.936 2°52.899 -999 2.887575 30.781334 -0.781249
2006-02-15 08:29:19 51°13.928 2°52.873 -999 2.882715 30.724178 -0.781249
2006-02-15 08:29:24 51°13.919 2°52.847 -999 2.876924 30.654253 -0.781249
2006-02-15 08:29:28 51°13.913 2°52.826 -999 2.878165 30.668839 -0.781249
2006-02-15 08:29:35 51°13.901 2°52.789 -999 2.885507 30.753309 -0.781249
2006-02-15 08:29:39 51°13.895 2°52.768 -999 2.884266 30.738719 -0.781249
2006-02-15 08:29:44 51°13.886 2°52.742 -999 2.884266 30.738719 -0.781249
2006-02-15 08:29:49 51°13.877 2°52.716 -999 2.885714 30.755741 -0.781249
2006-02-15 08:29:54 51°13.868 2°52.691 -999 2.894297 30.857617 -0.814958
2006-02-15 08:29:59 51°13.858 2°52.666 -999 2.883956 30.735071 -0.814958
2006-02-15 08:30:04 51°13.849 2°52.641 -999 2.873926 30.617165 -0.814958
2006-02-15 08:30:10 51°13.837 2°52.612 -999 2.89047 30.814463 -0.814958
2006-02-15 08:30:14 51°13.829 2°52.592 -999 2.89047 30.814463 -0.814958
2006-02-15 08:30:20 51°13.818 2°52.562 -999 2.900915 30.936419 -0.814958
2006-02-15 08:30:24 51°13.81 2°52.542 -999 2.892745 30.842153 -0.781249
2006-02-15 08:30:29 51°13.801 2°52.517 -999 2.893262 30.848236 -0.781249
2006-02-15 08:30:34 51°13.791 2°52.492 -999 2.90319 30.965989 -0.781249
2006-02-15 08:30:40 51°13.781 2°52.461 -999 2.900191 30.929761 -0.781249
2006-02-15 08:30:44 51°13.773 2°52.441 -999 2.900191 30.929761 -0.781249
2006-02-15 08:30:49 51°13.764 2°52.416 -999 2.883439 30.73269 -0.74754
2006-02-15 08:30:54 51°13.755 2°52.39 -999 2.876718 30.652744 -0.74754
2006-02-15 08:30:59 51°13.745 2°52.365 -999 2.891711 30.828133 -0.74754
2006-02-15 08:31:04 51°13.735 2°52.341 -999 2.899881 30.924249 -0.74754
2006-02-15 08:31:08 51°13.727 2°52.322 -999 2.898536 30.90936 -0.74754
2006-02-15 08:31:14 51°13.715 2°52.293 -999 2.898536 30.90936 -0.74754
2006-02-15 08:31:19 51°13.704 2°52.269 -999 2.900915 30.937349 -0.781249
2006-02-15 08:31:24 51°13.693 2°52.245 -999 2.898433 30.908143 -0.781249
2006-02-15 08:31:28 51°13.685 2°52.226 -999 2.907947 31.021055 -0.74754
2006-02-15 08:31:34 51°13.673 2°52.197 -999 2.905154 30.989118 -0.74754
2006-02-15 08:31:39 51°13.663 2°52.172 -999 2.896365 30.885665 -0.781249
2006-02-15 08:31:44 51°13.653 2°52.147 -999 2.896365 30.885665 -0.781249
2006-02-15 08:31:48 51°13.645 2°52.128 -999 2.904948 30.986683 -0.781249
2006-02-15 08:31:54 51°13.634 2°52.098 -999 2.902259 30.953171 -0.781249
2006-02-15 08:31:59 51°13.625 2°52.072 -999 2.902569 30.955891 -0.781249
2006-02-15 08:32:04 51°13.615 2°52.047 -999 2.906292 30.998778 -0.814958
2006-02-15 08:32:09 51°13.606 2°52.023 -999 2.908464 31.023409 -0.814958
2006-02-15 08:32:15 51°13.593 2°51.993 -999 2.908464 31.023409 -0.814958
2006-02-15 08:32:19 51°13.585 2°51.975 -999 2.899881 30.921458 -0.814958
2006-02-15 08:32:24 51°13.574 2°51.951 -999 2.902052 30.947013 -0.848668
2006-02-15 08:32:29 51°13.563 2°51.927 -999 2.905154 30.983524 -0.848668
2006-02-15 08:32:34 51°13.553 2°51.903 -999 2.902569 30.951235 -0.848668
2006-02-15 08:32:40 51°13.541 2°51.874 -999 2.90867 31.023044 -0.848668
2006-02-15 08:32:44 51°13.533 2°51.854 -999 2.90867 31.023044 -0.848668
2006-02-15 08:32:48 51°13.525 2°51.834 -999 2.912393 31.066871 -0.848668
2006-02-15 08:32:55 51°13.512 2°51.799 -999 2.906188 30.993831 -0.848668
2006-02-15 08:32:59 51°13.505 2°51.779 -999 2.900087 30.922962 -0.848668
2006-02-15 08:33:04 51°13.495 2°51.754 -999 2.901638 30.941214 -0.848668
2006-02-15 08:33:09 51°13.486 2°51.729 -999 2.909911 31.03952 -0.848668
2006-02-15 08:33:14 51°13.476 2°51.704 -999 2.909911 31.03952 -0.848668
2006-02-15 08:33:19 51°13.466 2°51.68 -999 2.909187 31.030998 -0.848668
2006-02-15 08:33:24 51°13.456 2°51.655 -999 2.91322 31.078481 -0.848668
2006-02-15 08:33:29 51°13.446 2°51.631 -999 2.905154 30.983524 -0.848668
2006-02-15 08:33:34 51°13.436 2°51.607 -999 2.909084 31.02978 -0.848668
2006-02-15 08:33:39 51°13.425 2°51.583 -999 2.910222 31.044106 -0.848668
2006-02-15 08:33:44 51°13.414 2°51.559 -999 2.910222 31.044106 -0.848668
2006-02-15 08:33:49 51°13.404 2°51.534 -999 2.905878 30.993909 -0.882377
2006-02-15 08:33:54 51°13.394 2°51.51 -999 2.904741 30.98052 -0.882377
2006-02-15 08:33:59 51°13.384 2°51.486 -999 2.887885 30.782204 -0.882377
2006-02-15 08:34:04 51°13.374 2°51.461 -999 2.911773 31.063304 -0.882377
2006-02-15 08:34:09 51°13.364 2°51.437 -999 2.916736 31.121757 -0.882377
2006-02-15 08:34:14 51°13.355 2°51.412 -999 2.916736 31.121757 -0.882377
2006-02-15 08:34:19 51°13.345 2°51.387 -999 2.919839 31.157361 -0.882377
2006-02-15 08:34:24 51°13.336 2°51.362 -999 2.912393 31.06874 -0.882377
2006-02-15 08:34:28 51°13.329 2°51.342 -999 2.916736 31.118013 -0.882377
2006-02-15 08:34:34 51°13.317 2°51.312 -999 2.91229 31.063784 -0.882377
2006-02-15 08:34:40 51°13.305 2°51.283 -999 2.91715 31.121948 -0.882377
2006-02-15 08:34:44 51°13.297 2°51.263 -999 2.91715 31.121948 -0.882377
2006-02-15 08:34:48 51°13.289 2°51.244 -999 2.914978 31.097311 -0.916087
2006-02-15 08:34:54 51°13.276 2°51.216 -999 2.914772 31.094876 -0.882377
2006-02-15 08:34:59 51°13.266 2°51.191 -999 2.91684 31.120167 -0.882377
2006-02-15 08:35:04 51°13.257 2°51.166 -999 2.923769 31.201776 -0.916087
2006-02-15 08:35:09 51°13.247 2°51.141 -999 2.911566 31.058065 -0.916087
2006-02-15 08:35:14 51°13.237 2°51.117 -999 2.911566 31.058065 -0.916087
2006-02-15 08:35:19 51°13.228 2°51.092 -999 2.920149 31.158203 -0.916087
2006-02-15 08:35:24 51°13.218 2°51.068 -999 2.912083 31.062284 -0.916087
2006-02-15 08:35:29 51°13.208 2°51.043 -999 2.917564 31.12401 -0.916087
2006-02-15 08:35:34 51°13.198 2°51.018 -999 2.92594 31.221726 -0.916087
2006-02-15 08:35:39 51°13.188 2°50.994 -999 2.922217 31.176 -0.916087
2006-02-15 08:35:44 51°13.178 2°50.97 -999 2.922217 31.176 -0.916087
2006-02-15 08:35:48 51°13.17 2°50.95 -999 2.919632 31.143682 -0.916087
2006-02-15 08:35:54 51°13.158 2°50.921 -999 2.925216 31.208506 -0.916087
2006-02-15 08:35:59 51°13.147 2°50.897 -999 2.921493 31.1656 -0.916087
2006-02-15 08:36:04 51°13.137 2°50.872 -999 2.912703 31.06118 -0.916087
2006-02-15 08:36:09 51°13.127 2°50.847 -999 2.931214 31.278217 -0.916087
2006-02-15 08:36:14 51°13.118 2°50.822 -999 2.931214 31.278217 -0.916087
2006-02-15 08:36:19 51°13.108 2°50.797 -999 2.92563 31.212439 -0.916087
2006-02-15 08:36:24 51°13.099 2°50.772 -999 2.926561 31.222462 -0.916087
2006-02-15 08:36:29 51°13.089 2°50.747 -999 2.925423 31.208126 -0.916087
2006-02-15 08:36:34 51°13.08 2°50.722 -999 2.928112 31.237914 -0.882377
2006-02-15 08:36:40 51°13.068 2°50.692 -999 2.92532 31.203155 -0.882377
2006-02-15 08:36:44 51°13.061 2°50.672 -999 2.92532 31.203155 -0.882377
2006-02-15 08:36:49 51°13.051 2°50.647 -999 2.930801 31.265823 -0.916087
2006-02-15 08:36:54 51°13.042 2°50.622 -999 2.924596 31.192755 -0.882377
2006-02-15 08:36:59 51°13.032 2°50.598 -999 2.924596 31.191818 -0.882377
2006-02-15 08:37:04 51°13.022 2°50.573 -999 2.920356 31.140967 -0.916087
2006-02-15 08:37:09 51°13.012 2°50.549 -999 2.929663 31.249607 -0.882377
2006-02-15 08:37:14 51°13.002 2°50.524 -999 2.929663 31.249607 -0.882377
2006-02-15 08:37:20 51°12.989 2°50.496 -999 2.926147 31.208205 -0.916087
2006-02-15 08:37:24 51°12.981 2°50.477 -999 2.924802 31.193315 -0.882377
2006-02-15 08:37:29 51°12.971 2°50.452 -999 2.928422 31.235933 -0.882377
2006-02-15 08:37:34 51°12.961 2°50.428 -999 2.920252 31.138814 -0.916087
2006-02-15 08:37:39 51°12.951 2°50.403 -999 2.92625 31.211299 -0.882377
2006-02-15 08:37:44 51°12.941 2°50.379 -999 2.92625 31.211299 -0.882377
2006-02-15 08:37:48 51°12.933 2°50.36 -999 2.928732 31.239586 -0.882377
2006-02-15 08:37:54 51°12.922 2°50.33 -999 2.931835 31.276122 -0.916087
2006-02-15 08:37:59 51°12.912 2°50.305 -999 2.927491 31.224034 -0.882377
2006-02-15 08:38:04 51°12.903 2°50.281 -999 2.9217 31.153982 -0.882377
2006-02-15 08:38:09 51°12.893 2°50.256 -999 2.927801 31.226749 -0.916087
2006-02-15 08:38:14 51°12.884 2°50.231 -999 2.927801 31.226749 -0.916087
2006-02-15 08:38:19 51°12.874 2°50.207 -999 2.929249 31.242857 -0.882377
2006-02-15 08:38:24 51°12.864 2°50.182 -999 2.926147 31.204453 -0.882377
2006-02-15 08:38:30 51°12.852 2°50.153 -999 2.928525 31.231517 -0.916087
2006-02-15 08:38:35 51°12.842 2°50.129 -999 2.93473 31.305522 -0.916087
2006-02-15 08:38:39 51°12.834 2°50.11 -999 2.936695 31.329606 -0.916087
2006-02-15 08:38:44 51°12.823 2°50.087 -999 2.936695 31.329606 -0.916087
2006-02-15 08:38:49 51°12.813 2°50.063 -999 2.928319 31.230959 -0.882377
2006-02-15 08:38:55 51°12.801 2°50.034 -999 2.931007 31.263559 -0.916087
2006-02-15 08:38:59 51°12.793 2°50.014 -999 2.931007 31.264499 -0.916087
2006-02-15 08:39:04 51°12.783 2°49.989 -999 2.927698 31.225531 -0.882377
2006-02-15 08:39:09 51°12.774 2°49.964 -999 2.921907 31.157354 -0.882377
2006-02-15 08:39:15 51°12.762 2°49.934 -999 2.921907 31.157354 -0.882377
2006-02-15 08:39:19 51°12.754 2°49.914 -999 2.909808 31.014045 -0.916087
2006-02-15 08:39:24 51°12.744 2°49.889 -999 2.935868 31.319862 -0.882377
2006-02-15 08:39:29 51°12.735 2°49.864 -999 2.928318 31.230021 -0.882377
2006-02-15 08:39:34 51°12.725 2°49.839 -999 2.924906 31.188907 -0.916087
2006-02-15 08:39:39 51°12.716 2°49.814 -999 2.933489 31.288086 -0.916087
2006-02-15 08:39:44 51°12.706 2°49.79 -999 2.933489 31.288086 -0.916087
2006-02-15 08:39:49 51°12.696 2°49.765 -999 2.932041 31.269158 -0.916087
2006-02-15 08:39:54 51°12.686 2°49.74 -999 2.928318 31.225328 -0.916087
2006-02-15 08:39:59 51°12.676 2°49.715 -999 2.932558 31.275246 -0.916087
2006-02-15 08:40:05 51°12.665 2°49.685 -999 2.926974 31.21044 -0.882377
2006-02-15 08:40:08 51°12.659 2°49.67 -999 2.90805 30.988708 -0.916087
2006-02-15 08:40:15 51°12.647 2°49.635 -999 2.90805 30.988708 -0.916087
2006-02-15 08:40:19 51°12.64 2°49.614 -999 2.930077 31.247902 -0.882377
2006-02-15 08:40:24 51°12.631 2°49.588 -999 2.929559 31.240876 -0.916087
2006-02-15 08:40:29 51°12.623 2°49.562 -999 2.929973 31.245746 -0.882377
2006-02-15 08:40:34 51°12.614 2°49.536 -999 2.928318 31.226266 -0.882377
2006-02-15 08:40:39 51°12.606 2°49.51 -999 2.928836 31.232353 -0.916087
2006-02-15 08:40:44 51°12.597 2°49.484 -999 2.928836 31.232353 -0.916087
2006-02-15 08:40:48 51°12.591 2°49.463 -999 2.931938 31.26794 -0.882377
2006-02-15 08:40:55 51°12.579 2°49.427 -999 2.925113 31.185718 -0.882377
2006-02-15 08:40:59 51°12.572 2°49.406 -999 2.924182 31.173827 -0.882377
2006-02-15 08:41:04 51°12.564 2°49.38 -999 2.916736 31.086219 -0.882377
2006-02-15 08:41:08 51°12.557 2°49.359 -999 2.935351 31.304362 -0.882377
2006-02-15 08:41:15 51°12.544 2°49.324 -999 2.935351 31.304362 -0.882377
2006-02-15 08:41:19 51°12.537 2°49.303 -999 2.926664 31.201162 -0.882377
2006-02-15 08:41:24 51°12.528 2°49.278 -999 2.932662 31.273644 -0.882377
2006-02-15 08:41:29 51°12.52 2°49.252 -999 2.935764 31.310173 -0.882377
2006-02-15 08:41:34 51°12.511 2°49.226 -999 2.938763 31.34549 -0.882377
2006-02-15 08:41:40 51°12.501 2°49.195 -999 2.931835 31.264843 -0.882377
2006-02-15 08:41:44 51°12.495 2°49.174 -999 2.931835 31.264843 -0.882377
2006-02-15 08:41:49 51°12.487 2°49.148 -999 2.929973 31.242929 -0.882377
2006-02-15 08:41:54 51°12.479 2°49.121 -999 2.930283 31.245642 -0.882377
2006-02-15 08:41:59 51°12.471 2°49.094 -999 2.932765 31.273922 -0.882377
2006-02-15 08:42:04 51°12.464 2°49.068 -999 2.924699 31.178975 -0.916087
2006-02-15 08:42:09 51°12.457 2°49.041 -999 2.928112 31.21914 -0.882377
2006-02-15 08:42:14 51°12.449 2°49.014 -999 2.928112 31.21914 -0.882377
2006-02-15 08:42:19 51°12.442 2°48.987 -999 2.931938 31.263242 -0.916087
2006-02-15 08:42:24 51°12.434 2°48.961 -999 2.931938 31.263242 -0.882377
2006-02-15 08:42:29 51°12.426 2°48.934 -999 2.913737 31.049076 -0.916087
2006-02-15 08:42:34 51°12.419 2°48.908 -999 2.933696 31.28488 -0.882377
2006-02-15 08:42:39 51°12.411 2°48.881 -999 2.940004 31.359164 -0.882377
2006-02-15 08:42:44 51°12.403 2°48.855 -999 2.940004 31.359164 -0.882377
2006-02-15 08:42:49 51°12.395 2°48.829 -999 2.930594 31.247416 -0.916087
2006-02-15 08:42:54 51°12.387 2°48.802 -999 2.939901 31.357946 -0.916087
2006-02-15 08:42:59 51°12.379 2°48.777 -999 2.937316 31.326557 -0.916087
2006-02-15 08:43:04 51°12.37 2°48.75 -999 2.929766 31.237678 -0.916087
2006-02-15 08:43:09 51°12.362 2°48.724 -999 2.941349 31.373112 -0.916087
2006-02-15 08:43:14 51°12.354 2°48.698 -999 2.941349 31.373112 -0.916087
2006-02-15 08:43:19 51°12.346 2°48.671 -999 2.92625 31.194419 -0.916087
2006-02-15 08:43:24 51°12.338 2°48.645 -999 2.941245 31.370952 -0.916087
2006-02-15 08:43:28 51°12.332 2°48.624 -999 2.939694 31.349857 -0.916087
2006-02-15 08:43:35 51°12.322 2°48.586 -999 2.931938 31.255729 -0.916087
2006-02-15 08:43:39 51°12.316 2°48.565 -999 2.941659 31.370168 -0.916087
2006-02-15 08:43:44 51°12.308 2°48.538 -999 2.941659 31.370168 -0.916087
2006-02-15 08:43:49 51°12.301 2°48.511 -999 2.940004 31.350685 -0.916087
2006-02-15 08:43:54 51°12.293 2°48.485 -999 2.937005 31.313495 -0.916087
2006-02-15 08:44:00 51°12.284 2°48.453 -999 2.936798 31.309179 -0.916087
2006-02-15 08:44:04 51°12.278 2°48.432 -999 2.931938 31.250097 -0.916087
2006-02-15 08:44:08 51°12.271 2°48.411 -999 2.940108 31.346253 -0.916087
2006-02-15 08:44:15 51°12.26 2°48.374 -999 2.940108 31.346253 -0.916087
2006-02-15 08:44:19 51°12.254 2°48.353 -999 2.941038 31.35721 -0.916087
2006-02-15 08:44:24 51°12.246 2°48.327 -999 2.94228 31.374647 -0.916087
2006-02-15 08:44:29 51°12.237 2°48.301 -999 2.937315 31.316206 -0.916087
2006-02-15 08:44:34 51°12.229 2°48.275 -999 2.943107 31.383446 -0.916087
2006-02-15 08:44:39 51°12.221 2°48.249 -999 2.932558 31.259276 -0.916087
2006-02-15 08:44:44 51°12.213 2°48.222 -999 2.932558 31.259276 -0.916087
2006-02-15 08:44:50 51°12.204 2°48.191 -999 2.939487 31.341772 -0.916087
2006-02-15 08:44:55 51°12.196 2°48.164 -999 2.939901 31.345701 -0.916087
2006-02-15 08:44:59 51°12.19 2°48.143 -999 2.941349 31.363688 -0.916087
2006-02-15 08:45:04 51°12.182 2°48.116 -999 2.942693 31.38046 -0.916087
2006-02-15 08:45:10 51°12.173 2°48.084 -999 2.939074 31.337844 -0.916087
2006-02-15 08:45:15 51°12.166 2°48.057 -999 2.939074 31.337844 -0.916087
2006-02-15 08:45:19 51°12.159 2°48.036 -999 2.934523 31.28522 -0.916087
2006-02-15 08:45:24 51°12.152 2°48.009 -999 2.942073 31.372212 -0.916087
2006-02-15 08:45:30 51°12.143 2°47.977 -999 2.947864 31.439466 -0.916087
2006-02-15 08:45:35 51°12.135 2°47.95 -999 2.948278 31.443393 -0.916087
2006-02-15 08:45:39 51°12.129 2°47.929 -999 2.939177 31.335296 -0.916087
2006-02-15 08:45:44 51°12.121 2°47.902 -999 2.939177 31.335296 -0.916087
2006-02-15 08:45:49 51°12.113 2°47.876 -999 2.937936 31.319747 -0.916087
2006-02-15 08:45:55 51°12.104 2°47.843 -999 2.939901 31.343818 -0.916087
2006-02-15 08:45:59 51°12.098 2°47.822 -999 2.938453 31.325834 -0.916087
2006-02-15 08:46:04 51°12.09 2°47.795 -999 2.940935 31.35505 -0.916087
2006-02-15 08:46:09 51°12.082 2°47.768 -999 2.911462 31.007413 -0.916087
2006-02-15 08:46:15 51°12.073 2°47.736 -999 2.911462 31.007413 -0.916087
2006-02-15 08:46:20 51°12.066 2°47.709 -999 2.935144 31.285005 -0.916087
2006-02-15 08:46:24 51°12.06 2°47.688 -999 2.940315 31.345863 -0.916087
2006-02-15 08:46:29 51°12.052 2°47.661 -999 2.943417 31.383328 -0.916087
2006-02-15 08:46:34 51°12.044 2°47.635 -999 2.936592 31.302044 -0.916087
2006-02-15 08:46:39 51°12.036 2°47.608 -999 2.933282 31.264978 -0.916087
2006-02-15 08:46:45 51°12.026 2°47.576 -999 2.933282 31.264978 -0.916087
2006-02-15 08:46:48 51°12.021 2°47.561 -999 2.927388 31.195622 -0.916087
2006-02-15 08:46:55 51°12.01 2°47.524 -999 2.940521 31.352064 -0.882377
2006-02-15 08:47:00 51°12.003 2°47.497 -999 2.943107 31.383446 -0.882377
2006-02-15 08:47:05 51°11.995 2°47.47 -999 2.942073 31.371269 -0.882377
2006-02-15 08:47:09 51°11.989 2°47.448 -999 2.934833 31.286992 -0.882377
2006-02-15 08:47:14 51°11.982 2°47.422 -999 2.934833 31.286992 -0.882377
2006-02-15 08:47:19 51°11.974 2°47.395 -999 2.94714 31.432829 -0.882377
2006-02-15 08:47:24 51°11.967 2°47.368 -999 2.944865 31.406034 -0.916087
2006-02-15 08:47:29 51°11.959 2°47.341 -999 2.946313 31.423085 -0.916087
2006-02-15 08:47:34 51°11.952 2°47.315 -999 2.942693 31.381403 -0.916087
2006-02-15 08:47:39 51°11.944 2°47.288 -999 2.947761 31.441081 -0.916087
2006-02-15 08:47:44 51°11.937 2°47.261 -999 2.947761 31.441081 -0.916087
2006-02-15 08:47:48 51°11.93 2°47.24 -999 2.9429 31.383838 -0.916087
2006-02-15 08:47:55 51°11.919 2°47.203 -999 2.936075 31.304419 -0.916087
2006-02-15 08:47:59 51°11.913 2°47.181 -999 2.949105 31.457862 -0.916087
2006-02-15 08:48:04 51°11.906 2°47.154 -999 2.946623 31.427683 -0.916087
2006-02-15 08:48:09 51°11.898 2°47.128 -999 2.946313 31.423085 -0.916087
2006-02-15 08:48:15 51°11.889 2°47.096 -999 2.946313 31.423085 -0.916087
2006-02-15 08:48:20 51°11.882 2°47.069 -999 2.942073 31.372212 -0.916087
2006-02-15 08:48:24 51°11.877 2°47.047 -999 2.94321 31.383721 -0.916087
2006-02-15 08:48:29 51°11.87 2°47.02 -999 2.938867 31.331644 -0.916087
2006-02-15 08:48:34 51°11.863 2°46.992 -999 2.939487 31.336125 -0.916087
2006-02-15 08:48:39 51°11.857 2°46.965 -999 2.939384 31.333966 -0.916087
2006-02-15 08:48:44 51°11.851 2°46.937 -999 2.939384 31.333966 -0.916087
2006-02-15 08:48:50 51°11.844 2°46.904 -999 2.945796 31.409447 -0.916087
2006-02-15 08:48:54 51°11.839 2°46.881 -999 2.921183 31.1189 -0.916087
2006-02-15 08:48:59 51°11.833 2°46.853 -999 2.949726 31.453832 -0.916087
2006-02-15 08:49:04 51°11.827 2°46.826 -999 2.941969 31.361574 -0.916087
2006-02-15 08:49:09 51°11.821 2°46.798 -999 2.939073 31.326552 -0.916087
2006-02-15 08:49:14 51°11.815 2°46.77 -999 2.939073 31.326552 -0.916087
2006-02-15 08:49:19 51°11.808 2°46.742 -999 2.935247 31.282464 -0.916087
2006-02-15 08:49:24 51°11.802 2°46.715 -999 2.928835 31.207968 -0.916087
2006-02-15 08:49:30 51°11.795 2°46.682 -999 2.920666 31.11282 -0.916087
2006-02-15 08:49:35 51°11.789 2°46.654 -999 2.937936 31.315985 -0.916087
2006-02-15 08:49:39 51°11.784 2°46.632 -999 2.949415 31.451123 -0.916087
2006-02-15 08:49:44 51°11.778 2°46.604 -999 2.949415 31.451123 -0.916087
2006-02-15 08:49:48 51°11.773 2°46.581 -999 2.949209 31.449632 -0.916087
2006-02-15 08:49:55 51°11.764 2°46.542 -999 2.950036 31.46032 -0.949796
2006-02-15 08:49:59 51°11.759 2°46.52 -999 2.947761 31.432583 -0.916087
2006-02-15 08:50:04 51°11.753 2°46.492 -999 2.940521 31.346415 -0.916087
2006-02-15 08:50:08 51°11.748 2°46.47 -999 2.947967 31.433131 -0.916087
2006-02-15 08:50:15 51°11.739 2°46.431 -999 2.947967 31.433131 -0.916087
2006-02-15 08:50:19 51°11.734 2°46.409 -999 2.947657 31.428534 -0.949796
2006-02-15 08:50:24 51°11.728 2°46.382 -999 2.94321 31.375239 -0.949796
2006-02-15 08:50:29 51°11.722 2°46.354 -999 2.944761 31.392557 -0.949796
2006-02-15 08:50:34 51°11.715 2°46.326 -999 2.947037 31.418398 -0.949796
2006-02-15 08:50:40 51°11.708 2°46.293 -999 2.949002 31.440587 -0.949796
2006-02-15 08:50:44 51°11.703 2°46.271 -999 2.949002 31.440587 -0.949796
2006-02-15 08:50:49 51°11.697 2°46.243 -999 2.94683 31.41219 -0.949796
2006-02-15 08:50:54 51°11.691 2°46.215 -999 2.944037 31.378382 -0.949796
2006-02-15 08:50:59 51°11.685 2°46.188 -999 2.943934 31.376223 -0.949796
2006-02-15 08:51:04 51°11.678 2°46.16 -999 2.945278 31.392988 -0.949796
2006-02-15 08:51:09 51°11.672 2°46.132 -999 2.953759 31.491874 -0.949796
2006-02-15 08:51:14 51°11.666 2°46.104 -999 2.953759 31.491874 -0.949796
2006-02-15 08:51:19 51°11.659 2°46.077 -999 2.950036 31.448042 -0.949796
2006-02-15 08:51:24 51°11.653 2°46.049 -999 2.950656 31.455347 -0.949796
2006-02-15 08:51:30 51°11.645 2°46.016 -999 2.949415 31.440737 -0.949796
2006-02-15 08:51:34 51°11.64 2°45.994 -999 2.946209 31.403001 -0.949796
2006-02-15 08:51:39 51°11.633 2°45.966 -999 2.947864 31.421534 -0.949796
2006-02-15 08:51:44 51°11.627 2°45.939 -999 2.947864 31.421534 -0.949796
2006-02-15 08:51:50 51°11.619 2°45.905 -999 2.944244 31.378933 -0.949796
2006-02-15 08:51:55 51°11.613 2°45.878 -999 2.947037 31.411795 -0.949796
2006-02-15 08:51:59 51°11.608 2°45.855 -999 2.948484 31.428837 -0.949796
2006-02-15 08:52:04 51°11.602 2°45.827 -999 2.949829 31.443719 -0.949796
2006-02-15 08:52:10 51°11.595 2°45.794 -999 2.950449 31.451023 -0.949796
2006-02-15 08:52:15 51°11.588 2°45.766 -999 2.950449 31.451023 -0.949796
2006-02-15 08:52:19 51°11.584 2°45.744 -999 2.932248 31.234985 -0.949796
2006-02-15 08:52:24 51°11.577 2°45.716 -999 2.946519 31.402881 -0.949796
2006-02-15 08:52:29 51°11.571 2°45.688 -999 2.950553 31.449409 -0.949796
2006-02-15 08:52:34 51°11.564 2°45.66 -999 2.948588 31.426281 -0.916087
2006-02-15 08:52:39 51°11.558 2°45.632 -999 2.943003 31.360563 -0.916087
2006-02-15 08:52:44 51°11.552 2°45.605 -999 2.943003 31.360563 -0.916087
2006-02-15 08:52:48 51°11.547 2°45.583 -999 2.943831 31.370298 -0.916087
2006-02-15 08:52:55 51°11.538 2°45.544 -999 2.944658 31.379091 -0.949796
2006-02-15 08:52:59 51°11.533 2°45.521 -999 2.948278 31.421686 -0.949796
2006-02-15 08:53:04 51°11.527 2°45.494 -999 2.947657 31.414384 -0.949796
2006-02-15 08:53:10 51°11.52 2°45.46 -999 2.952621 31.471867 -0.949796
2006-02-15 08:53:14 51°11.515 2°45.438 -999 2.952621 31.471867 -0.949796
2006-02-15 08:53:20 51°11.508 2°45.405 -999 2.952828 31.475246 -0.949796
2006-02-15 08:53:24 51°11.503 2°45.382 -999 2.946209 31.397345 -0.916087
2006-02-15 08:53:29 51°11.497 2°45.354 -999 2.945796 31.39342 -0.949796
2006-02-15 08:53:34 51°11.491 2°45.327 -999 2.933489 31.248642 -0.949796
2006-02-15 08:53:39 51°11.485 2°45.299 -999 2.949002 31.43115 -0.949796
2006-02-15 08:53:44 51°11.479 2°45.271 -999 2.949002 31.43115 -0.949796
2006-02-15 08:53:50 51°11.471 2°45.238 -999 2.942176 31.350828 -0.949796
2006-02-15 08:53:54 51°11.466 2°45.216 -999 2.949415 31.436019 -0.949796
2006-02-15 08:53:59 51°11.46 2°45.189 -999 2.92263 31.120039 -0.949796
2006-02-15 08:54:04 51°11.453 2°45.161 -999 2.949622 31.436566 -0.949796
2006-02-15 08:54:09 51°11.447 2°45.134 -999 2.950656 31.447794 -0.949796
2006-02-15 08:54:14 51°11.441 2°45.106 -999 2.950656 31.447794 -0.949796
2006-02-15 08:54:19 51°11.434 2°45.078 -999 2.952725 31.473084 -0.949796
2006-02-15 08:54:24 51°11.428 2°45.051 -999 2.954379 31.492563 -0.949796
2006-02-15 08:54:29 51°11.422 2°45.023 -999 2.940211 31.32583 -0.949796
2006-02-15 08:54:34 51°11.416 2°44.996 -999 2.956758 31.51962 -0.983506
2006-02-15 08:54:40 51°11.408 2°44.962 -999 2.941969 31.345572 -0.983506
2006-02-15 08:54:44 51°11.403 2°44.94 -999 2.941969 31.345572 -0.983506
2006-02-15 08:54:49 51°11.397 2°44.912 -999 2.941659 31.340982 -0.983506
2006-02-15 08:54:54 51°11.391 2°44.885 -999 2.951587 31.455917 -0.983506
2006-02-15 08:54:59 51°11.385 2°44.856 -999 2.952207 31.46322 -0.983506
2006-02-15 08:55:04 51°11.379 2°44.829 -999 2.95562 31.503391 -0.983506
2006-02-15 08:55:09 51°11.373 2°44.801 -999 2.954793 31.492707 -0.983506
2006-02-15 08:55:15 51°11.365 2°44.768 -999 2.954793 31.492707 -0.983506
2006-02-15 08:55:20 51°11.359 2°44.74 -999 2.949208 31.426038 -0.983506
2006-02-15 08:55:24 51°11.354 2°44.718 -999 2.953552 31.477155 -0.983506
2006-02-15 08:55:29 51°11.348 2°44.69 -999 2.95169 31.454302 -0.983506
2006-02-15 08:55:34 51°11.342 2°44.662 -999 2.956241 31.505968 -0.983506
2006-02-15 08:55:39 51°11.337 2°44.634 -999 2.936178 31.268066 -0.983506
2006-02-15 08:55:44 51°11.332 2°44.606 -999 2.936178 31.268066 -0.983506
2006-02-15 08:55:49 51°11.327 2°44.577 -999 2.954379 31.481224 -0.983506
2006-02-15 08:55:54 51°11.322 2°44.549 -999 2.954689 31.483931 -0.983506
2006-02-15 08:55:59 51°11.318 2°44.52 -999 2.950139 31.428503 -0.983506
2006-02-15 08:56:04 51°11.313 2°44.492 -999 2.957585 31.515173 -0.983506
2006-02-15 08:56:10 51°11.308 2°44.458 -999 2.950553 31.432427 -0.983506
2006-02-15 08:56:15 51°11.304 2°44.43 -999 2.950553 31.432427 -0.983506
2006-02-15 08:56:19 51°11.3 2°44.407 -999 2.957172 31.508414 -0.983506
2006-02-15 08:56:24 51°11.295 2°44.379 -999 2.945899 31.37392 -0.983506
2006-02-15 08:56:30 51°11.289 2°44.345 -999 2.952931 31.455693 -0.949796
2006-02-15 08:56:34 51°11.285 2°44.322 -999 2.93959 31.296927 -0.983506
2006-02-15 08:56:39 51°11.28 2°44.294 -999 2.958826 31.522214 -0.949796
2006-02-15 08:56:44 51°11.276 2°44.266 -999 2.958826 31.522214 -0.949796
2006-02-15 08:56:49 51°11.271 2°44.237 -999 2.958309 31.516129 -0.949796
2006-02-15 08:56:55 51°11.266 2°44.203 -999 2.953035 31.454079 -0.949796
2006-02-15 08:56:59 51°11.262 2°44.18 -999 2.966273 31.609844 -0.949796
2006-02-15 08:57:04 51°11.259 2°44.152 -999 2.958619 31.518835 -0.949796
2006-02-15 08:57:09 51°11.254 2°44.123 -999 2.933075 31.217543 -0.949796
2006-02-15 08:57:15 51°11.249 2°44.089 -999 2.933075 31.217543 -0.949796
2006-02-15 08:57:20 51°11.244 2°44.061 -999 2.961205 31.548311 -0.949796
2006-02-15 08:57:24 51°11.241 2°44.038 -999 2.962446 31.560075 -0.949796
2006-02-15 08:57:29 51°11.236 2°44.01 -999 2.959964 31.52898 -0.949796
2006-02-15 08:57:35 51°11.231 2°43.976 -999 2.964514 31.580627 -0.949796
2006-02-15 08:57:39 51°11.227 2°43.953 -999 2.959964 31.525199 -0.949796
2006-02-15 08:57:44 51°11.222 2°43.925 -999 2.959964 31.525199 -0.949796
2006-02-15 08:57:49 51°11.218 2°43.897 -999 2.95893 31.51209 -0.949796
2006-02-15 08:57:54 51°11.214 2°43.869 -999 2.957895 31.498037 -0.983506
2006-02-15 08:57:59 51°11.209 2°43.841 -999 2.966583 31.599281 -0.983506
2006-02-15 08:58:04 51°11.205 2°43.813 -999 2.967307 31.605904 -0.983506
2006-02-15 08:58:10 51°11.199 2°43.78 -999 2.962549 31.548994 -0.983506
2006-02-15 08:58:14 51°11.195 2°43.758 -999 2.962549 31.548994 -0.983506
2006-02-15 08:58:19 51°11.19 2°43.73 -999 2.959343 31.508454 -0.983506
2006-02-15 08:58:25 51°11.184 2°43.696 -999 2.957895 31.490485 -0.983506
2006-02-15 08:58:30 51°11.18 2°43.669 -999 2.957171 31.480086 -0.983506
2006-02-15 08:58:34 51°11.176 2°43.646 -999 2.957688 31.484279 -1.017215
2006-02-15 08:58:39 51°11.172 2°43.618 -999 2.963894 31.556295 -0.983506
2006-02-15 08:58:44 51°11.167 2°43.59 -999 2.963894 31.556295 -0.983506
2006-02-15 08:58:49 51°11.163 2°43.562 -999 2.963894 31.554404 -0.983506
2006-02-15 08:58:55 51°11.158 2°43.528 -999 2.958516 31.489288 -1.017215
2006-02-15 08:58:59 51°11.154 2°43.505 -999 2.971133 31.636704 -1.017215
2006-02-15 08:59:04 51°11.149 2°43.477 -999 2.96379 31.549406 -1.017215
2006-02-15 08:59:09 51°11.145 2°43.449 -999 2.969065 31.608588 -1.017215
2006-02-15 08:59:15 51°11.139 2°43.415 -999 2.969065 31.608588 -1.017215
2006-02-15 08:59:19 51°11.136 2°43.393 -999 2.963894 31.544952 -1.017215
2006-02-15 08:59:24 51°11.131 2°43.365 -999 2.976304 31.689939 -1.017215
2006-02-15 08:59:29 51°11.126 2°43.337 -999 2.964411 31.547251 -1.017215
2006-02-15 08:59:35 51°11.121 2°43.304 -999 2.958929 31.480946 -1.017215
2006-02-15 08:59:40 51°11.116 2°43.276 -999 2.964411 31.544417 -1.017215
2006-02-15 08:59:44 51°11.112 2°43.253 -999 2.964411 31.544417 -1.017215
2006-02-15 08:59:48 51°11.108 2°43.231 -999 2.95986 31.49094 -1.017215
2006-02-15 08:59:54 51°11.103 2°43.197 -999 2.972374 31.637084 -1.050924
2006-02-15 08:59:59 51°11.098 2°43.17 -999 2.97103 31.62033 -1.050924
2006-02-15 09:00:04 51°11.094 2°43.141 -999 2.972167 31.632757 -1.017215
2006-02-15 09:00:08 51°11.09 2°43.119 -999 2.966272 31.561571 -1.017215
2006-02-15 09:00:14 51°11.085 2°43.085 -999 2.966272 31.561571 -1.017215
2006-02-15 09:00:19 51°11.081 2°43.056 -999 2.967513 31.573321 -1.017215
2006-02-15 09:00:24 51°11.077 2°43.028 -999 2.969375 31.593308 -1.050924
2006-02-15 09:00:29 51°11.073 2°43 -999 2.969478 31.593578 -1.017215
2006-02-15 09:00:34 51°11.069 2°42.972 -999 2.976201 31.670698 -1.050924
2006-02-15 09:00:40 51°11.063 2°42.938 -999 2.969375 31.58858 -1.017215
2006-02-15 09:00:44 51°11.06 2°42.915 -999 2.969375 31.58858 -1.017215
2006-02-15 09:00:48 51°11.056 2°42.893 -999 2.978786 31.698248 -1.017215
2006-02-15 09:00:54 51°11.051 2°42.859 -999 2.981062 31.723099 -1.017215
2006-02-15 09:00:59 51°11.046 2°42.831 -999 2.973408 31.632193 -1.017215
2006-02-15 09:01:04 51°11.042 2°42.803 -999 2.97527 31.653124 -1.017215
2006-02-15 09:01:08 51°11.039 2°42.78 -999 2.977442 31.677702 -1.050924
2006-02-15 09:01:14 51°11.033 2°42.747 -999 2.977442 31.677702 -1.050924
2006-02-15 09:01:19 51°11.029 2°42.718 -999 2.978993 31.694039 -1.017215
2006-02-15 09:01:24 51°11.025 2°42.69 -999 2.977649 31.677289 -1.050924
2006-02-15 09:01:28 51°11.021 2°42.667 -999 2.980958 31.714289 -1.050924
2006-02-15 09:01:35 51°11.015 2°42.628 -999 2.963169 31.504358 -1.050924
2006-02-15 09:01:39 51°11.011 2°42.606 -999 2.97134 31.597484 -1.050924
2006-02-15 09:01:44 51°11.006 2°42.578 -999 2.97134 31.597484 -1.050924
2006-02-15 09:01:49 51°11.002 2°42.55 -999 2.972581 31.612063 -1.050924
2006-02-15 09:01:55 51°10.997 2°42.516 -999 2.949001 31.333351 -1.050924
2006-02-15 09:01:59 51°10.993 2°42.494 -999 2.979407 31.690366 -1.050924
2006-02-15 09:02:04 51°10.989 2°42.466 -999 2.981269 31.711294 -1.017215
2006-02-15 09:02:08 51°10.985 2°42.444 -999 2.965548 31.525689 -1.050924
2006-02-15 09:02:14 51°10.98 2°42.41 -999 2.965548 31.525689 -1.050924
2006-02-15 09:02:20 51°10.974 2°42.376 -999 2.981475 31.710878 -1.017215
2006-02-15 09:02:24 51°10.971 2°42.354 -999 2.971133 31.587494 -1.017215
2006-02-15 09:02:29 51°10.966 2°42.326 -999 2.972167 31.597749 -1.050924
2006-02-15 09:02:35 51°10.961 2°42.292 -999 2.978476 31.671849 -1.017215
2006-02-15 09:02:40 51°10.957 2°42.264 -999 2.979924 31.68791 -1.017215
2006-02-15 09:02:45 51°10.953 2°42.236 -999 2.979924 31.68791 -1.017215
2006-02-15 09:02:48 51°10.95 2°42.219 -999 2.98282 31.720035 -1.017215
2006-02-15 09:02:54 51°10.945 2°42.186 -999 2.978579 31.669275 -1.017215
2006-02-15 09:02:59 51°10.94 2°42.158 -999 2.982613 31.71476 -1.017215
2006-02-15 09:03:04 51°10.936 2°42.13 -999 2.984475 31.734732 -1.017215
2006-02-15 09:03:08 51°10.933 2°42.107 -999 2.982716 31.713129 -1.017215
2006-02-15 09:03:14 51°10.927 2°42.074 -999 2.982716 31.713129 -1.017215
2006-02-15 09:03:19 51°10.923 2°42.046 -999 2.983544 31.720003 -1.017215
2006-02-15 09:03:24 51°10.918 2°42.018 -999 2.985923 31.746996 -1.017215
2006-02-15 09:03:30 51°10.913 2°41.984 -999 2.984268 31.725661 -1.017215
2006-02-15 09:03:35 51°10.909 2°41.957 -999 2.987784 31.766017 -1.017215
2006-02-15 09:03:39 51°10.905 2°41.934 -999 2.980544 31.68004 -1.017215
2006-02-15 09:03:44 51°10.901 2°41.907 -999 2.980544 31.68004 -1.017215
2006-02-15 09:03:49 51°10.896 2°41.879 -999 2.984268 31.721868 -1.017215
2006-02-15 09:03:55 51°10.891 2°41.846 -999 2.987991 31.763699 -1.017215
2006-02-15 09:03:59 51°10.888 2°41.823 -999 2.982302 31.694055 -1.050924
2006-02-15 09:04:04 51°10.884 2°41.796 -999 2.989336 31.773793 -1.017215
2006-02-15 09:04:08 51°10.881 2°41.773 -999 2.989439 31.772159 -1.017215
2006-02-15 09:04:15 51°10.875 2°41.734 -999 2.989439 31.772159 -1.017215
2006-02-15 09:04:19 51°10.872 2°41.712 -999 2.985405 31.721954 -1.017215
2006-02-15 09:04:24 51°10.868 2°41.684 -999 2.986957 31.736374 -1.017215
2006-02-15 09:04:30 51°10.863 2°41.651 -999 2.980234 31.653688 -1.017215
2006-02-15 09:04:34 51°10.859 2°41.628 -999 2.974649 31.585335 -1.017215
2006-02-15 09:04:40 51°10.854 2°41.595 -999 2.984371 31.697501 -1.017215
2006-02-15 09:04:44 51°10.85 2°41.573 -999 2.984371 31.697501 -1.017215
2006-02-15 09:04:49 51°10.845 2°41.545 -999 2.990163 31.763576 -1.017215
2006-02-15 09:04:54 51°10.841 2°41.517 -999 2.999989 31.87607 -1.017215
2006-02-15 09:05:00 51°10.836 2°41.484 -999 2.995024 31.815886 -1.017215
2006-02-15 09:05:04 51°10.833 2°41.461 -999 2.992231 31.781212 -1.017215
2006-02-15 09:05:09 51°10.829 2°41.433 -999 2.980337 31.638836 -1.017215
2006-02-15 09:05:15 51°10.824 2°41.4 -999 2.980337 31.638836 -1.017215
2006-02-15 09:05:19 51°10.821 2°41.377 -999 2.996989 31.8323 -1.017215
2006-02-15 09:05:24 51°10.816 2°41.349 -999 2.986853 31.711476 -1.050924
2006-02-15 09:05:30 51°10.811 2°41.316 -999 2.992645 31.776579 -1.050924
2006-02-15 09:05:35 51°10.807 2°41.288 -999 3.003608 31.902383 -1.050924
2006-02-15 09:05:39 51°10.803 2°41.266 -999 2.981578 31.641111 -1.050924
2006-02-15 09:05:44 51°10.799 2°41.238 -999 2.981578 31.641111 -1.050924
2006-02-15 09:05:50 51°10.793 2°41.204 -999 2.992128 31.762927 -1.050924
2006-02-15 09:05:55 51°10.789 2°41.177 -999 3.000402 31.857145 -1.050924
2006-02-15 09:06:00 51°10.785 2°41.149 -999 2.991507 31.750911 -1.050924
2006-02-15 09:06:04 51°10.782 2°41.126 -999 2.997403 31.818158 -1.050924
2006-02-15 09:06:09 51°10.778 2°41.098 -999 2.99823 31.826914 -1.050924
2006-02-15 09:06:14 51°10.774 2°41.07 -999 2.99823 31.826914 -1.050924
2006-02-15 09:06:20 51°10.769 2°41.036 -999 3.001747 31.865315 -1.050924
2006-02-15 09:06:25 51°10.765 2°41.008 -999 3.005987 31.913162 -1.050924
2006-02-15 09:06:28 51°10.763 2°40.991 -999 3.002264 31.867579 -1.050924
2006-02-15 09:06:35 51°10.757 2°40.952 -999 2.99792 31.814733 -1.050924
2006-02-15 09:06:39 51°10.754 2°40.929 -999 2.999057 31.825227 -1.050924
2006-02-15 09:06:44 51°10.75 2°40.902 -999 2.999057 31.825227 -1.050924
2006-02-15 09:06:50 51°10.745 2°40.868 -999 2.980957 31.611197 -1.050924
2006-02-15 09:06:54 51°10.741 2°40.846 -999 2.998644 31.815632 -1.050924
2006-02-15 09:07:00 51°10.736 2°40.812 -999 3.000195 31.831923 -1.050924
2006-02-15 09:07:04 51°10.733 2°40.79 -999 2.975579 31.541617 -1.050924
2006-02-15 09:07:09 51°10.729 2°40.762 -999 3.004436 31.877845 -1.050924
2006-02-15 09:07:15 51°10.724 2°40.728 -999 3.004436 31.877845 -1.050924
2006-02-15 09:07:19 51°10.721 2°40.705 -999 2.997195 31.789177 -1.017215
2006-02-15 09:07:24 51°10.717 2°40.677 -999 2.996678 31.780274 -1.050924
2006-02-15 09:07:29 51°10.713 2°40.649 -999 3.004022 31.865394 -1.017215
2006-02-15 09:07:35 51°10.708 2°40.616 -999 3.005677 31.882893 -1.050924
2006-02-15 09:07:39 51°10.705 2°40.593 -999 2.995437 31.761944 -1.017215
2006-02-15 09:07:44 51°10.701 2°40.565 -999 2.995437 31.761944 -1.017215
2006-02-15 09:07:49 51°10.696 2°40.537 -999 2.991714 31.718324 -1.017215
2006-02-15 09:07:55 51°10.691 2°40.504 -999 2.997712 31.787658 -1.017215
2006-02-15 09:07:59 51°10.688 2°40.482 -999 3.000195 31.816745 -1.017215
2006-02-15 09:08:04 51°10.684 2°40.454 -999 3.009193 31.921266 -1.050924
2006-02-15 09:08:09 51°10.68 2°40.426 -999 2.990266 31.698529 -1.017215
2006-02-15 09:08:15 51°10.675 2°40.392 -999 2.990266 31.698529 -1.017215
2006-02-15 09:08:19 51°10.672 2°40.37 -999 2.996368 31.769064 -1.017215
2006-02-15 09:08:24 51°10.668 2°40.342 -999 3.003194 31.847152 -1.017215
2006-02-15 09:08:30 51°10.663 2°40.309 -999 3.004539 31.861011 -1.050924
2006-02-15 09:08:35 51°10.658 2°40.281 -999 2.976923 31.537618 -1.017215
2006-02-15 09:08:40 51°10.654 2°40.253 -999 2.997506 31.778605 -1.017215
2006-02-15 09:08:44 51°10.65 2°40.231 -999 2.997506 31.778605 -1.017215
2006-02-15 09:08:49 51°10.646 2°40.203 -999 3.018606 32.024002 -1.017215
2006-02-15 09:08:54 51°10.641 2°40.176 -999 3.01964 32.035177 -1.017215
2006-02-15 09:08:59 51°10.637 2°40.149 -999 3.017882 32.013605 -1.017215
2006-02-15 09:09:04 51°10.632 2°40.122 -999 3.018916 32.025733 -1.017215
2006-02-15 09:09:09 51°10.627 2°40.094 -999 3.021088 32.049293 -1.050924
2006-02-15 09:09:15 51°10.622 2°40.06 -999 3.021088 32.049293 -1.050924
2006-02-15 09:09:20 51°10.617 2°40.033 -999 3.022433 32.064106 -1.050924
2006-02-15 09:09:24 51°10.614 2°40.011 -999 3.013537 31.957915 -1.050924
2006-02-15 09:09:29 51°10.609 2°39.983 -999 3.01302 31.950902 -1.017215
2006-02-15 09:09:35 51°10.603 2°39.949 -999 3.020881 32.041141 -1.050924
2006-02-15 09:09:39 51°10.6 2°39.927 -999 3.016227 31.985626 -1.050924
2006-02-15 09:09:44 51°10.595 2°39.899 -999 3.016227 31.985626 -1.050924
2006-02-15 09:09:49 51°10.59 2°39.871 -999 3.022226 32.054996 -1.017215
2006-02-15 09:09:55 51°10.585 2°39.838 -999 3.022226 32.054996 -1.050924
2006-02-15 09:09:59 51°10.581 2°39.816 -999 3.018192 32.007708 -1.017215
2006-02-15 09:10:04 51°10.576 2°39.788 -999 3.021605 32.046766 -1.050924
2006-02-15 09:10:10 51°10.571 2°39.754 -999 3.012503 31.940084 -1.017215
2006-02-15 09:10:15 51°10.566 2°39.726 -999 3.012503 31.940084 -1.017215
2006-02-15 09:10:19 51°10.563 2°39.704 -999 3.008883 31.896718 -1.017215
2006-02-15 09:10:24 51°10.558 2°39.676 -999 3.013951 31.956101 -1.017215
2006-02-15 09:10:29 51°10.553 2°39.648 -999 3.014365 31.960949 -1.017215
2006-02-15 09:10:34 51°10.549 2°39.62 -999 3.007124 31.87517 -1.017215
2006-02-15 09:10:39 51°10.544 2°39.592 -999 3.01302 31.942339 -1.050924
2006-02-15 09:10:44 51°10.54 2°39.564 -999 3.01302 31.942339 -1.050924
2006-02-15 09:10:49 51°10.535 2°39.536 -999 3.013744 31.949871 -1.050924
2006-02-15 09:10:55 51°10.53 2°39.503 -999 3.011675 31.924684 -1.050924
2006-02-15 09:10:59 51°10.526 2°39.481 -999 3.016951 31.984586 -1.050924
2006-02-15 09:11:04 51°10.521 2°39.453 -999 3.016123 31.973939 -1.017215
2006-02-15 09:11:09 51°10.517 2°39.425 -999 3.016847 31.982422 -1.017215
2006-02-15 09:11:15 51°10.511 2°39.392 -999 3.016847 31.982422 -1.017215
2006-02-15 09:11:19 51°10.507 2°39.37 -999 3.014882 31.959396 -1.050924
2006-02-15 09:11:24 51°10.502 2°39.342 -999 3.010227 31.90392 -1.050924
2006-02-15 09:11:29 51°10.498 2°39.315 -999 3.015813 31.969351 -1.050924
2006-02-15 09:11:34 51°10.493 2°39.287 -999 3.0064 31.857202 -1.050924
2006-02-15 09:11:39 51°10.489 2°39.26 -999 2.99554 31.729117 -1.050924
2006-02-15 09:11:44 51°10.485 2°39.232 -999 2.99554 31.729117 -1.050924
2006-02-15 09:11:49 51°10.48 2°39.204 -999 3.00909 31.885848 -1.050924
2006-02-15 09:11:55 51°10.475 2°39.171 -999 3.011365 31.912497 -1.050924
2006-02-15 09:11:59 51°10.471 2°39.149 -999 3.003711 31.820977 -1.050924
2006-02-15 09:12:04 51°10.467 2°39.121 -999 3.017778 31.98476 -1.050924
2006-02-15 09:12:09 51°10.463 2°39.093 -999 3.009296 31.883525 -1.050924
2006-02-15 09:12:15 51°10.457 2°39.06 -999 3.009296 31.883525 -1.050924
2006-02-15 09:12:19 51°10.454 2°39.038 -999 3.000712 31.783027 -1.084634
2006-02-15 09:12:24 51°10.45 2°39.01 -999 3.003401 31.813557 -1.050924
2006-02-15 09:12:29 51°10.445 2°38.982 -999 2.996988 31.737562 -1.050924
2006-02-15 09:12:35 51°10.44 2°38.948 -999 3.010434 31.893051 -1.050924
2006-02-15 09:12:39 51°10.436 2°38.926 -999 3.006607 31.846353 -1.050924
2006-02-15 09:12:44 51°10.432 2°38.898 -999 3.006607 31.846353 -1.050924
2006-02-15 09:12:50 51°10.426 2°38.865 -999 3.003297 31.805721 -1.084634
2006-02-15 09:12:55 51°10.421 2°38.837 -999 3.003194 31.802618 -1.050924
2006-02-15 09:12:59 51°10.417 2°38.815 -999 2.997919 31.73901 -1.050924
2006-02-15 09:13:04 51°10.413 2°38.788 -999 2.994195 31.69357 -1.050924
2006-02-15 09:13:09 51°10.408 2°38.76 -999 2.998746 31.745856 -1.050924
2006-02-15 09:13:15 51°10.402 2°38.728 -999 2.998746 31.745856 -1.050924
2006-02-15 09:13:19 51°10.399 2°38.706 -999 2.997402 31.729185 -1.050924
2006-02-15 09:13:24 51°10.394 2°38.678 -999 2.997195 31.725821 -1.050924
2006-02-15 09:13:29 51°10.39 2°38.65 -999 2.994712 31.694904 -1.050924
2006-02-15 09:13:35 51°10.384 2°38.617 -999 2.989024 31.627451 -1.050924
2006-02-15 09:13:40 51°10.38 2°38.589 -999 2.982715 31.553708 -1.050924
2006-02-15 09:13:44 51°10.377 2°38.567 -999 2.982715 31.553708 -1.050924
2006-02-15 09:13:49 51°10.372 2°38.539 -999 2.988403 31.620197 -1.050924
2006-02-15 09:13:54 51°10.368 2°38.511 -999 2.986335 31.596017 -1.050924
2006-02-15 09:14:00 51°10.363 2°38.478 -999 2.984576 31.575465 -1.050924
2006-02-15 09:14:05 51°10.359 2°38.45 -999 2.986645 31.599643 -1.050924
2006-02-15 09:14:10 51°10.354 2°38.423 -999 2.98137 31.537995 -1.050924
2006-02-15 09:14:14 51°10.351 2°38.4 -999 2.98137 31.537995 -1.050924
2006-02-15 09:14:19 51°10.347 2°38.372 -999 2.980232 31.5247 -1.050924
2006-02-15 09:14:24 51°10.342 2°38.345 -999 2.978474 31.502282 -1.050924
2006-02-15 09:14:29 51°10.338 2°38.317 -999 2.976199 31.473827 -1.050924
2006-02-15 09:14:35 51°10.333 2°38.284 -999 2.97051 31.406453 -1.084634
2006-02-15 09:14:39 51°10.329 2°38.262 -999 2.966477 31.35749 -1.084634
2006-02-15 09:14:44 51°10.326 2°38.234 -999 2.966477 31.35749 -1.084634
2006-02-15 09:14:49 51°10.321 2°38.207 -999 2.969476 31.390642 -1.084634
2006-02-15 09:14:54 51°10.317 2°38.179 -999 2.969683 31.391191 -1.084634
2006-02-15 09:14:59 51°10.312 2°38.151 -999 2.964822 31.331651 -1.084634
2006-02-15 09:15:04 51°10.308 2°38.124 -999 2.961926 31.295063 -1.084634
2006-02-15 09:15:10 51°10.302 2°38.09 -999 2.963167 31.306754 -1.084634
2006-02-15 09:15:15 51°10.298 2°38.062 -999 2.963167 31.306754 -1.084634
2006-02-15 09:15:19 51°10.295 2°38.04 -999 2.962133 31.291897 -1.084634
2006-02-15 09:15:24 51°10.291 2°38.012 -999 2.958927 31.251709 -1.084634
2006-02-15 09:15:29 51°10.287 2°37.984 -999 2.958617 31.246233 -1.084634
2006-02-15 09:15:35 51°10.282 2°37.95 -999 2.960478 31.265159 -1.084634
2006-02-15 09:15:39 51°10.279 2°37.928 -999 2.963064 31.292528 -1.084634
2006-02-15 09:15:44 51°10.275 2°37.901 -999 2.963064 31.292528 -1.084634
2006-02-15 09:15:49 51°10.271 2°37.874 -999 2.961926 31.276472 -1.084634
2006-02-15 09:15:55 51°10.266 2°37.84 -999 2.965339 31.314416 -1.084634
2006-02-15 09:15:59 51°10.263 2°37.818 -999 2.967718 31.339369 -1.084634
2006-02-15 09:16:04 51°10.258 2°37.791 -999 2.973613 31.405339 -1.084634
2006-02-15 09:16:09 51°10.254 2°37.763 -999 2.965753 31.309942 -1.084634
2006-02-15 09:16:15 51°10.25 2°37.729 -999 2.965753 31.309942 -1.084634
2006-02-15 09:16:19 51°10.246 2°37.707 -999 2.971131 31.369863 -1.084634
2006-02-15 09:16:24 51°10.242 2°37.679 -999 2.977957 31.44668 -1.084634
2006-02-15 09:16:30 51°10.237 2°37.646 -999 2.982507 31.498834 -1.084634
2006-02-15 09:16:35 51°10.233 2°37.618 -999 2.986748 31.547377 -1.084634
2006-02-15 09:16:39 51°10.229 2°37.595 -999 2.982404 31.495758 -1.118343
2006-02-15 09:16:44 51°10.225 2°37.568 -999 2.982404 31.495758 -1.118343
2006-02-15 09:16:49 51°10.22 2°37.54 -999 2.977957 31.442013 -1.118343
2006-02-15 09:16:54 51°10.215 2°37.513 -999 2.986127 31.535455 -1.118343
2006-02-15 09:16:59 51°10.21 2°37.485 -999 2.989747 31.574881 -1.118343
2006-02-15 09:17:04 51°10.205 2°37.457 -999 2.99585 31.646094 -1.118343
2006-02-15 09:17:10 51°10.2 2°37.424 -999 3.001435 31.712232 -1.084634
2006-02-15 09:17:15 51°10.196 2°37.396 -999 3.001435 31.712232 -1.084634
2006-02-15 09:17:20 51°10.191 2°37.368 -999 3.006089 31.767521 -1.084634
2006-02-15 09:17:24 51°10.188 2°37.345 -999 3.007227 31.781752 -1.084634
2006-02-15 09:17:30 51°10.183 2°37.312 -999 3.011675 31.836536 -1.084634
2006-02-15 09:17:35 51°10.178 2°37.284 -999 3.013433 31.863701 -1.084634
2006-02-15 09:17:39 51°10.175 2°37.261 -999 3.014157 31.882576 -1.084634
2006-02-15 09:17:44 51°10.17 2°37.234 -999 3.014157 31.882576 -1.084634
2006-02-15 09:17:50 51°10.165 2°37.2 -999 3.022846 31.994624 -1.084634
2006-02-15 09:17:55 51°10.16 2°37.172 -999 3.027707 32.062939 -1.084634
2006-02-15 09:18:00 51°10.155 2°37.145 -999 3.026156 32.051446 -1.084634
2006-02-15 09:18:04 51°10.152 2°37.122 -999 3.030397 32.108741 -1.084634
2006-02-15 09:18:09 51°10.147 2°37.094 -999 3.029983 32.108669 -1.084634
2006-02-15 09:18:14 51°10.143 2°37.066 -999 3.029983 32.108669 -1.084634
2006-02-15 09:18:20 51°10.137 2°37.033 -999 3.028535 32.095525 -1.084634
2006-02-15 09:18:24 51°10.134 2°37.011 -999 3.035879 32.185406 -1.084634
2006-02-15 09:18:29 51°10.129 2°36.983 -999 3.037638 32.208892 -1.084634
2006-02-15 09:18:34 51°10.125 2°36.955 -999 3.035569 32.1856 -1.084634
2006-02-15 09:18:40 51°10.119 2°36.921 -999 3.035983 32.191408 -1.084634
2006-02-15 09:18:44 51°10.116 2°36.899 -999 3.035983 32.191408 -1.084634
2006-02-15 09:18:49 51°10.112 2°36.872 -999 3.039189 32.228041 -1.084634
2006-02-15 09:18:54 51°10.107 2°36.843 -999 3.034328 32.17105 -1.084634
2006-02-15 09:18:59 51°10.103 2°36.816 -999 3.031845 32.142911 -1.084634
2006-02-15 09:19:04 51°10.099 2°36.788 -999 3.043327 32.277515 -1.084634
2006-02-15 09:19:09 51°10.094 2°36.76 -999 3.04012 32.238956 -1.084634
2006-02-15 09:19:14 51°10.09 2°36.732 -999 3.04012 32.238956 -1.084634
2006-02-15 09:19:19 51°10.086 2°36.704 -999 3.043017 32.272916 -1.084634
2006-02-15 09:19:24 51°10.081 2°36.677 -999 3.044465 32.288937 -1.084634
2006-02-15 09:19:30 51°10.077 2°36.644 -999 3.037638 32.208892 -1.084634
2006-02-15 09:19:35 51°10.073 2°36.616 -999 3.039086 32.225869 -1.084634
2006-02-15 09:19:39 51°10.07 2°36.593 -999 3.044051 32.284085 -1.084634
2006-02-15 09:19:44 51°10.066 2°36.565 -999 3.044051 32.284085 -1.084634
2006-02-15 09:19:49 51°10.063 2°36.537 -999 3.044775 32.290654 -1.084634
2006-02-15 09:19:54 51°10.06 2°36.509 -999 3.038362 32.214505 -1.084634
2006-02-15 09:19:59 51°10.058 2°36.48 -999 3.041982 32.255028 -1.084634
2006-02-15 09:20:04 51°10.056 2°36.452 -999 3.04281 32.262809 -1.084634
2006-02-15 09:20:09 51°10.054 2°36.424 -999 3.042499 32.257252 -1.084634
2006-02-15 09:20:15 51°10.052 2°36.39 -999 3.042499 32.257252 -1.084634
2006-02-15 09:20:19 51°10.052 2°36.368 -999 3.039189 32.217495 -1.084634
2006-02-15 09:20:24 51°10.051 2°36.339 -999 3.027604 32.080801 -1.084634
2006-02-15 09:20:30 51°10.051 2°36.305 -999 3.042396 32.253161 -1.084634
2006-02-15 09:20:34 51°10.052 2°36.282 -999 3.043017 32.258517 -1.084634
2006-02-15 09:20:40 51°10.054 2°36.248 -999 3.042913 32.256345 -1.084634
2006-02-15 09:20:44 51°10.056 2°36.226 -999 3.042913 32.256345 -1.084634
2006-02-15 09:20:49 51°10.059 2°36.198 -999 3.02326 32.025158 -1.084634
2006-02-15 09:20:54 51°10.061 2°36.17 -999 3.044154 32.268974 -1.118343
2006-02-15 09:20:59 51°10.064 2°36.142 -999 3.047982 32.310953 -1.118343
2006-02-15 09:21:05 51°10.067 2°36.11 -999 3.028535 32.082163 -1.084634
2006-02-15 09:21:10 51°10.071 2°36.082 -999 3.032259 32.124817 -1.084634
2006-02-15 09:21:14 51°10.073 2°36.06 -999 3.032259 32.124817 -1.084634
2006-02-15 09:21:19 51°10.076 2°36.033 -999 3.042499 32.243823 -1.084634
2006-02-15 09:21:24 51°10.079 2°36.006 -999 3.044775 32.268571 -1.118343
2006-02-15 09:21:29 51°10.083 2°35.978 -999 3.035258 32.155171 -1.084634
2006-02-15 09:21:34 51°10.088 2°35.952 -999 3.035672 32.158105 -1.118343
2006-02-15 09:21:40 51°10.093 2°35.919 -999 3.05874 32.426479 -1.118343
2006-02-15 09:21:44 51°10.097 2°35.899 -999 3.05874 32.426479 -1.118343
2006-02-15 09:21:49 51°10.102 2°35.872 -999 3.054291 32.37145 -1.118343
2006-02-15 09:21:54 51°10.107 2°35.846 -999 3.054602 32.3722 -1.118343
2006-02-15 09:22:00 51°10.114 2°35.816 -999 3.057291 32.400832 -1.118343
2006-02-15 09:22:05 51°10.122 2°35.791 -999 3.054809 32.368852 -1.118343
2006-02-15 09:22:10 51°10.13 2°35.768 -999 3.056567 32.386571 -1.084634
2006-02-15 09:22:15 51°10.138 2°35.745 -999 3.056567 32.386571 -1.084634
2006-02-15 09:22:19 51°10.145 2°35.726 -999 3.053153 32.341771 -1.084634
2006-02-15 09:22:24 51°10.154 2°35.703 -999 3.057498 32.387856 -1.084634
2006-02-15 09:22:30 51°10.166 2°35.676 -999 3.057084 32.377238 -1.084634
2006-02-15 09:22:34 51°10.174 2°35.66 -999 3.068463 32.504753 -1.084634
2006-02-15 09:22:40 51°10.188 2°35.637 -999 3.052222 32.309748 -1.084634
2006-02-15 09:22:44 51°10.198 2°35.624 -999 3.052222 32.309748 -1.084634
2006-02-15 09:22:48 51°10.208 2°35.609 -999 3.068773 32.498738 -1.050924
2006-02-15 09:22:54 51°10.224 2°35.591 -999 3.063808 32.437697 -1.050924
2006-02-15 09:23:00 51°10.241 2°35.571 -999 3.06567 32.45661 -1.050924
2006-02-15 09:23:05 51°10.255 2°35.559 -999 3.067532 32.476486 -1.050924
2006-02-15 09:23:08 51°10.264 2°35.551 -999 3.069394 32.498291 -1.017215
2006-02-15 09:23:15 51°10.286 2°35.537 -999 3.069394 32.498291 -1.017215
2006-02-15 09:23:20 51°10.301 2°35.528 -999 3.064635 32.442572 -1.017215
2006-02-15 09:23:24 51°10.314 2°35.523 -999 3.067739 32.481801 -1.017215
2006-02-15 09:23:29 51°10.33 2°35.515 -999 3.069394 32.502149 -0.983506
2006-02-15 09:23:34 51°10.347 2°35.51 -999 3.070428 32.516195 -0.983506
2006-02-15 09:23:39 51°10.364 2°35.507 -999 3.062463 32.424838 -0.983506
2006-02-15 09:23:44 51°10.38 2°35.504 -999 3.062463 32.424838 -0.983506
2006-02-15 09:23:48 51°10.393 2°35.504 -999 3.067429 32.488774 -0.983506
2006-02-15 09:23:54 51°10.414 2°35.505 -999 3.064842 32.464264 -0.949796
2006-02-15 09:23:59 51°10.43 2°35.508 -999 3.068877 32.515394 -0.949796
2006-02-15 09:24:04 51°10.446 2°35.511 -999 3.061946 32.438041 -0.949796
2006-02-15 09:24:09 51°10.463 2°35.517 -999 3.051395 32.320213 -0.949796
2006-02-15 09:24:15 51°10.482 2°35.522 -999 3.051395 32.320213 -0.949796
2006-02-15 09:24:20 51°10.498 2°35.531 -999 3.05967 32.422936 -0.949796
2006-02-15 09:24:24 51°10.512 2°35.534 -999 3.060498 32.435526 -0.949796
2006-02-15 09:24:29 51°10.527 2°35.544 -999 3.061532 32.451508 -0.949796
2006-02-15 09:24:35 51°10.546 2°35.556 -999 3.052533 32.348917 -0.916087
2006-02-15 09:24:39 51°10.558 2°35.565 -999 3.059257 32.430615 -0.916087
2006-02-15 09:24:44 51°10.574 2°35.576 -999 3.059257 32.430615 -0.916087
2006-02-15 09:24:49 51°10.588 2°35.59 -999 3.056464 32.400763 -0.916087
2006-02-15 09:24:54 51°10.604 2°35.601 -999 3.049637 32.321703 -0.916087
2006-02-15 09:25:00 51°10.62 2°35.619 -999 3.057188 32.415034 -0.916087
2006-02-15 09:25:04 51°10.632 2°35.628 -999 3.059153 32.440975 -0.916087
2006-02-15 09:25:08 51°10.643 2°35.642 -999 3.054705 32.391705 -0.916087
2006-02-15 09:25:14 51°10.661 2°35.659 -999 3.054705 32.391705 -0.916087
2006-02-15 09:25:19 51°10.674 2°35.675 -999 3.053774 32.382715 -0.916087
2006-02-15 09:25:24 51°10.688 2°35.691 -999 3.056774 32.419823 -0.949796
2006-02-15 09:25:29 51°10.703 2°35.705 -999 3.056361 32.417863 -0.916087
2006-02-15 09:25:35 51°10.719 2°35.724 -999 3.057188 32.428535 -0.916087
2006-02-15 09:25:39 51°10.73 2°35.738 -999 3.051602 32.363982 -0.916087
2006-02-15 09:25:44 51°10.743 2°35.754 -999 3.051602 32.363982 -0.916087
2006-02-15 09:25:49 51°10.756 2°35.771 -999 3.061016 32.476334 -0.949796
2006-02-15 09:25:55 51°10.773 2°35.79 -999 3.059154 32.453522 -0.949796
2006-02-15 09:25:59 51°10.784 2°35.804 -999 3.060705 32.471727 -0.949796
2006-02-15 09:26:05 51°10.8 2°35.822 -999 3.059878 32.461052 -0.949796
2006-02-15 09:26:09 51°10.812 2°35.834 -999 3.061947 32.485326 -0.949796
2006-02-15 09:26:15 51°10.829 2°35.852 -999 3.061947 32.485326 -0.949796
2006-02-15 09:26:19 51°10.841 2°35.862 -999 3.059154 32.454487 -0.949796
2006-02-15 09:26:24 51°10.855 2°35.877 -999 3.063395 32.50522 -0.949796
2006-02-15 09:26:30 51°10.874 2°35.891 -999 3.061636 32.48555 -0.949796
2006-02-15 09:26:35 51°10.888 2°35.906 -999 3.048499 32.331438 -0.949796
2006-02-15 09:26:39 51°10.9 2°35.916 -999 3.060602 32.472445 -0.949796
2006-02-15 09:26:44 51°10.914 2°35.931 -999 3.060602 32.472445 -0.949796
2006-02-15 09:26:50 51°10.932 2°35.948 -999 3.064015 32.511536 -0.949796
2006-02-15 09:26:54 51°10.942 2°35.961 -999 3.06236 32.491147 -0.983506
2006-02-15 09:27:00 51°10.959 2°35.978 -999 3.063084 32.496744 -0.983506
2006-02-15 09:27:05 51°10.974 2°35.993 -999 3.061326 32.474179 -0.949796
2006-02-15 09:27:08 51°10.982 2°36.001 -999 3.060602 32.462787 -0.983506
2006-02-15 09:27:15 51°11.002 2°36.021 -999 3.060602 32.462787 -0.983506
2006-02-15 09:27:20 51°11.017 2°36.035 -999 3.056774 32.415966 -0.949796
2006-02-15 09:27:24 51°11.029 2°36.046 -999 3.060188 32.454072 -0.983506
2006-02-15 09:27:29 51°11.044 2°36.059 -999 3.06205 32.47398 -0.983506
2006-02-15 09:27:35 51°11.061 2°36.077 -999 3.058326 32.429341 -0.983506
2006-02-15 09:27:39 51°11.073 2°36.087 -999 3.059464 32.44172 -0.983506
2006-02-15 09:27:44 51°11.087 2°36.102 -999 3.059464 32.44172 -0.983506
2006-02-15 09:27:49 51°11.102 2°36.116 -999 3.064739 32.501662 -0.983506
2006-02-15 09:27:55 51°11.118 2°36.135 -999 3.063705 32.487597 -0.983506
2006-02-15 09:27:59 51°11.13 2°36.147 -999 3.066912 32.523274 -0.983506
2006-02-15 09:28:04 51°11.144 2°36.162 -999 3.062567 32.470391 -0.983506
2006-02-15 09:28:09 51°11.158 2°36.178 -999 3.060084 32.437424 -0.983506
2006-02-15 09:28:15 51°11.175 2°36.195 -999 3.060084 32.437424 -0.983506
2006-02-15 09:28:19 51°11.186 2°36.209 -999 3.064119 32.481826 -1.017215
2006-02-15 09:28:25 51°11.204 2°36.226 -999 3.064015 32.475787 -1.017215
2006-02-15 09:28:30 51°11.218 2°36.241 -999 3.071049 32.555357 -1.017215
2006-02-15 09:28:35 51°11.233 2°36.256 -999 3.064325 32.473635 -1.017215
2006-02-15 09:28:39 51°11.245 2°36.267 -999 3.069601 32.532576 -1.017215
2006-02-15 09:28:44 51°11.259 2°36.283 -999 3.069601 32.532576 -1.017215
2006-02-15 09:28:49 51°11.274 2°36.295 -999 3.063084 32.454265 -1.017215
2006-02-15 09:28:54 51°11.287 2°36.312 -999 3.059877 32.413803 -1.017215
2006-02-15 09:28:59 51°11.302 2°36.325 -999 3.061118 32.424493 -1.017215
2006-02-15 09:29:04 51°11.316 2°36.34 -999 3.057291 32.376777 -1.017215
2006-02-15 09:29:10 51°11.333 2°36.357 -999 3.055636 32.355473 -1.017215
2006-02-15 09:29:15 51°11.347 2°36.372 -999 3.055636 32.355473 -1.017215
2006-02-15 09:29:20 51°11.362 2°36.383 -999 3.06267 32.43689 -1.017215
2006-02-15 09:29:24 51°11.373 2°36.397 -999 3.05998 32.403465 -1.017215
2006-02-15 09:29:28 51°11.385 2°36.407 -999 3.058118 32.379737 -1.017215
2006-02-15 09:29:34 51°11.401 2°36.425 -999 3.065566 32.465035 -1.017215
2006-02-15 09:29:40 51°11.419 2°36.44 -999 3.070222 32.518598 -1.017215
2006-02-15 09:29:44 51°11.43 2°36.453 -999 3.070222 32.518598 -1.017215
2006-02-15 09:29:49 51°11.444 2°36.466 -999 3.06929 32.504797 -1.017215
2006-02-15 09:29:55 51°11.46 2°36.486 -999 3.067325 32.480811 -1.017215
2006-02-15 09:29:59 51°11.472 2°36.495 -999 3.067739 32.482765 -1.017215
2006-02-15 09:30:04 51°11.485 2°36.513 -999 3.070428 32.5133 -1.017215
2006-02-15 09:30:09 51°11.5 2°36.527 -999 3.070635 32.512828 -1.017215
2006-02-15 09:30:14 51°11.513 2°36.543 -999 3.070635 32.512828 -1.017215
2006-02-15 09:30:20 51°11.53 2°36.56 -999 3.069394 32.498291 -1.017215
2006-02-15 09:30:24 51°11.542 2°36.571 -999 3.069497 32.498538 -1.017215
2006-02-15 09:30:30 51°11.56 2°36.588 -999 3.070532 32.510652 -1.017215
2006-02-15 09:30:34 51°11.571 2°36.599 -999 3.06898 32.493445 -1.017215
2006-02-15 09:30:39 51°11.586 2°36.612 -999 3.070532 32.512582 -1.017215
2006-02-15 09:30:44 51°11.6 2°36.627 -999 3.070532 32.512582 -1.017215
2006-02-15 09:30:49 51°11.615 2°36.64 -999 3.067946 32.484224 -1.017215
2006-02-15 09:30:54 51°11.63 2°36.653 -999 3.070118 32.5087 -1.050924
2006-02-15 09:31:00 51°11.647 2°36.67 -999 3.067635 32.481554 -1.050924
2006-02-15 09:31:04 51°11.659 2°36.681 -999 3.069808 32.506995 -1.017215
2006-02-15 09:31:09 51°11.674 2°36.694 -999 3.067222 32.4796 -1.050924
2006-02-15 09:31:14 51°11.688 2°36.71 -999 3.067222 32.4796 -1.050924
2006-02-15 09:31:20 51°11.705 2°36.725 -999 3.06598 32.467953 -1.050924
2006-02-15 09:31:24 51°11.717 2°36.738 -999 3.06598 32.470845 -1.050924
2006-02-15 09:31:29 51°11.73 2°36.753 -999 3.065567 32.467926 -1.050924
2006-02-15 09:31:34 51°11.745 2°36.767 -999 3.062153 32.430832 -1.050924
2006-02-15 09:31:39 51°11.759 2°36.783 -999 3.063498 32.450438 -1.050924
2006-02-15 09:31:44 51°11.773 2°36.798 -999 3.063498 32.450438 -1.050924
2006-02-15 09:31:49 51°11.788 2°36.811 -999 3.059774 32.409703 -1.050924
2006-02-15 09:31:55 51°11.805 2°36.829 -999 3.06205 32.440216 -1.050924
2006-02-15 09:32:00 51°11.819 2°36.843 -999 3.061015 32.432914 -1.050924
2006-02-15 09:32:04 51°11.831 2°36.855 -999 3.058119 32.402827 -1.050924
2006-02-15 09:32:09 51°11.845 2°36.869 -999 3.057291 32.396981 -1.050924
2006-02-15 09:32:15 51°11.862 2°36.889 -999 3.057291 32.396981 -1.050924
2006-02-15 09:32:19 51°11.874 2°36.897 -999 3.058843 32.419982 -1.050924
2006-02-15 09:32:24 51°11.887 2°36.915 -999 3.053464 32.361751 -1.050924
2006-02-15 09:32:29 51°11.902 2°36.927 -999 3.053464 32.366561 -1.050924
2006-02-15 09:32:35 51°11.918 2°36.945 -999 3.05574 32.396128 -1.050924
2006-02-15 09:32:39 51°11.93 2°36.956 -999 3.055533 32.395629 -1.050924
2006-02-15 09:32:44 51°11.944 2°36.972 -999 3.055533 32.395629 -1.050924
2006-02-15 09:32:49 51°11.958 2°36.986 -999 3.054085 32.382501 -1.050924
2006-02-15 09:32:54 51°11.972 2°37.001 -999 3.053568 32.378363 -1.050924
2006-02-15 09:32:59 51°11.986 2°37.015 -999 3.051085 32.351179 -1.050924